Observation data for Palo Duro Canyon State Park Floor on 01/17/2019      Previous  Date  Next       Current Mesonet Observations  Soil Data  Daily Summary Page  Observations in Plain Language
KPD2 170600Z 34006KT 12/M01 A3005 RMK A01 T01151014  RH  041%=      5-min Rain = 0
KPD2 170601Z 34008KT 12/M01 A3005 RMK A01 T01161014  RH  041%=      5-min Rain = 0
KPD2 170602Z 33008KT 12/M01 A3005 RMK A01 T01171013  RH  040%=      5-min Rain = 0
KPD2 170603Z 32010KT 12/M01 A3005 RMK A01 T01171013  RH  040%=      5-min Rain = 0
KPD2 170604Z 34007KT 12/M01 A3005 RMK A01 T01191013  RH  040%=      5-min Rain = 0
KPD2 170605Z 33010KT 12/M01 A3005 RMK A01 T01201013  RH  040%=      5-min Rain = 0
KPD2 170606Z 32007KT 12/M01 A3005 RMK A01 T01201013  RH  040%=      5-min Rain = 0
KPD2 170607Z 33010KT 12/M01 A3005 RMK A01 T01201014  RH  039%=      5-min Rain = 0
KPD2 170608Z 34009KT 12/M01 A3005 RMK A01 T01201014  RH  039%=      5-min Rain = 0
KPD2 170609Z 33011G16KT 12/M01 A3005 RMK A01 T01201014  RH  039%=      5-min Rain = 0
KPD2 170610Z 34009KT 12/M01 A3005 RMK A01 T01211014  RH  039%=      5-min Rain = 0
KPD2 170611Z 35008KT 12/M01 A3005 RMK A01 T01221014  RH  039%=      5-min Rain = 0
KPD2 170612Z 34007KT 12/M01 A3005 RMK A01 T01211014  RH  039%=      5-min Rain = 0
KPD2 170613Z 34008KT 12/M02 A3005 RMK A01 T01191015  RH  039%=      5-min Rain = 0
KPD2 170614Z 33007KT 12/M01 A3005 RMK A01 T01191014  RH  040%=      5-min Rain = 0
KPD2 170615Z 35008KT 12/M01 A3005 RMK A01 T01181014  RH  040%=      5-min Rain = 0
KPD2 170616Z 33008KT 12/M01 A3005 RMK A01 T01171014  RH  040%=      5-min Rain = 0
KPD2 170617Z 34009KT 12/M01 A3005 RMK A01 T01181014  RH  040%=      5-min Rain = 0
KPD2 170618Z 34009KT 12/M01 A3005 RMK A01 T01181014  RH  040%=      5-min Rain = 0
KPD2 170619Z 34007KT 12/M01 A3005 RMK A01 T01181014  RH  040%=      5-min Rain = 0
KPD2 170620Z 34009KT 12/M01 A3005 RMK A01 T01171014  RH  040%=      5-min Rain = 0
KPD2 170621Z 34009KT 12/M01 A3005 RMK A01 T01181013  RH  040%=      5-min Rain = 0
KPD2 170622Z 34009KT 12/M01 A3005 RMK A01 T01191013  RH  040%=      5-min Rain = 0
KPD2 170623Z 34008KT 12/M01 A3005 RMK A01 T01191013  RH  040%=      5-min Rain = 0
KPD2 170624Z 33008KT 12/M01 A3005 RMK A01 T01191013  RH  040%=      5-min Rain = 0
KPD2 170625Z 33007KT 12/M01 A3005 RMK A01 T01191013  RH  040%=      5-min Rain = 0
KPD2 170626Z 34008KT 12/M01 A3005 RMK A01 T01171014  RH  040%=      5-min Rain = 0
KPD2 170627Z 34007KT 12/M01 A3005 RMK A01 T01171013  RH  041%=      5-min Rain = 0
KPD2 170628Z 35009KT 12/M01 A3005 RMK A01 T01161013  RH  041%=      5-min Rain = 0
KPD2 170629Z 34010KT 12/M01 A3005 RMK A01 T01151013  RH  041%=      5-min Rain = 0
KPD2 170630Z 34009KT 12/M01 A3005 RMK A01 T01151012  RH  041%=      5-min Rain = 0
KPD2 170631Z 34009KT 12/M01 A3005 RMK A01 T01151012  RH  041%=      5-min Rain = 0
KPD2 170632Z 35008KT 12/M01 A3005 RMK A01 T01151012  RH  041%=      5-min Rain = 0
KPD2 170633Z 34008KT 12/M01 A3005 RMK A01 T01151012  RH  041%=      5-min Rain = 0
KPD2 170634Z 34008KT 12/M01 A3005 RMK A01 T01151012  RH  041%=      5-min Rain = 0
KPD2 170635Z 34008KT 11/M01 A3005 RMK A01 T01141012  RH  041%=      5-min Rain = 0
KPD2 170636Z 34008KT 11/M01 A3006 RMK A01 T01141012  RH  042%=      5-min Rain = 0
KPD2 170637Z 35008KT 11/M01 A3006 RMK A01 T01131012  RH  042%=      5-min Rain = 0
KPD2 170638Z 34009KT 11/M01 A3006 RMK A01 T01131011  RH  042%=      5-min Rain = 0
KPD2 170639Z 35009KT 11/M01 A3006 RMK A01 T01131011  RH  042%=      5-min Rain = 0
KPD2 170640Z 35009KT 11/M01 A3006 RMK A01 T01131011  RH  042%=      5-min Rain = 0
KPD2 170641Z 35008KT 11/M01 A3006 RMK A01 T01131010  RH  042%=      5-min Rain = 0
KPD2 170642Z 34009KT 11/M01 A3006 RMK A01 T01131010  RH  043%=      5-min Rain = 0
KPD2 170643Z 34009KT 11/M01 A3006 RMK A01 T01121010  RH  043%=      5-min Rain = 0
KPD2 170644Z 34009KT 11/M01 A3006 RMK A01 T01111010  RH  043%=      5-min Rain = 0
KPD2 170645Z 34010KT 11/M01 A3006 RMK A01 T01101010  RH  043%=      5-min Rain = 0
KPD2 170646Z 34010KT 11/M01 A3006 RMK A01 T01111009  RH  043%=      5-min Rain = 0
KPD2 170647Z 34011KT 11/M01 A3006 RMK A01 T01111009  RH  043%=      5-min Rain = 0
KPD2 170648Z 34010KT 11/M01 A3006 RMK A01 T01111009  RH  043%=      5-min Rain = 0
KPD2 170649Z 34009KT 11/M01 A3006 RMK A01 T01121009  RH  043%=      5-min Rain = 0
KPD2 170650Z 35009KT 11/M01 A3006 RMK A01 T01111009  RH  043%=      5-min Rain = 0
KPD2 170651Z 34012G17KT 11/M01 A3006 RMK A01 T01101009  RH  044%=      5-min Rain = 0
KPD2 170652Z 34013KT 11/M01 A3006 RMK A01 T01101009  RH  044%=      5-min Rain = 0
KPD2 170653Z 34012KT 11/M01 A3006 RMK A01 T01101009  RH  044%=      5-min Rain = 0
KPD2 170654Z 34011KT 11/M01 A3006 RMK A01 T01101009  RH  044%=      5-min Rain = 0
KPD2 170655Z 34014KT 11/M01 A3007 RMK A01 T01091009  RH  044%=      5-min Rain = 0
KPD2 170656Z 34010KT 11/M01 A3007 RMK A01 T01091009  RH  044%=      5-min Rain = 0
KPD2 170657Z 34014KT 11/M01 A3007 RMK A01 T01081009  RH  044%=      5-min Rain = 0
KPD2 170658Z 34010KT 11/M01 A3007 RMK A01 T01081009  RH  044%=      5-min Rain = 0
KPD2 170659Z 34009KT 11/M01 A3007 RMK A01 T01081009  RH  044%=      5-min Rain = 0
KPD2 170700Z 34012KT 11/M01 A3007 RMK A01 T01071009  RH  045%=      5-min Rain = 0
KPD2 170701Z 33011KT 11/M01 A3007 RMK A01 T01071009  RH  045%=      5-min Rain = 0
KPD2 170702Z 34009KT 11/M01 A3007 RMK A01 T01071009  RH  045%=      5-min Rain = 0
KPD2 170703Z 33011KT 11/M01 A3007 RMK A01 T01061009  RH  045%=      5-min Rain = 0
KPD2 170704Z 33010KT 11/M01 A3007 RMK A01 T01051009  RH  045%=      5-min Rain = 0
KPD2 170705Z 32009KT 11/M01 A3007 RMK A01 T01051009  RH  045%=      5-min Rain = 0
KPD2 170706Z 32009KT 11/M01 A3007 RMK A01 T01051009  RH  045%=      5-min Rain = 0
KPD2 170707Z 31008KT 11/M01 A3007 RMK A01 T01051009  RH  045%=      5-min Rain = 0
KPD2 170708Z 31008KT 10/M01 A3007 RMK A01 T01041009  RH  045%=      5-min Rain = 0
KPD2 170709Z 32007KT 10/M01 A3007 RMK A01 T01041009  RH  045%=      5-min Rain = 0
KPD2 170710Z 31007KT 10/M01 A3007 RMK A01 T01031010  RH  045%=      5-min Rain = 0
KPD2 170711Z 31006KT 10/M01 A3007 RMK A01 T01021010  RH  046%=      5-min Rain = 0
KPD2 170712Z 29005KT 10/M01 A3007 RMK A01 T01011010  RH  046%=      5-min Rain = 0
KPD2 170713Z 30007KT 10/M01 A3007 RMK A01 T00991011  RH  047%=      5-min Rain = 0
KPD2 170714Z 30006KT 10/M01 A3007 RMK A01 T00971010  RH  047%=      5-min Rain = 0
KPD2 170715Z 30006KT 10/M01 A3007 RMK A01 T00971010  RH  047%=      5-min Rain = 0
KPD2 170716Z 30006KT 10/M01 A3007 RMK A01 T00961010  RH  048%=      5-min Rain = 0
KPD2 170717Z 30006KT 10/M01 A3007 RMK A01 T00961010  RH  048%=      5-min Rain = 0
KPD2 170718Z 30006KT 10/M01 A3007 RMK A01 T00951010  RH  048%=      5-min Rain = 0
KPD2 170719Z 30006KT 09/M01 A3007 RMK A01 T00931011  RH  048%=      5-min Rain = 0
KPD2 170720Z 30006KT 09/M01 A3007 RMK A01 T00921011  RH  049%=      5-min Rain = 0
KPD2 170721Z 30006KT 09/M01 A3006 RMK A01 T00921010  RH  049%=      5-min Rain = 0
KPD2 170722Z 31006KT 09/M01 A3006 RMK A01 T00921010  RH  049%=      5-min Rain = 0
KPD2 170723Z 31006KT 09/M01 A3006 RMK A01 T00921010  RH  049%=      5-min Rain = 0
KPD2 170724Z 31007KT 09/M01 A3006 RMK A01 T00921010  RH  049%=      5-min Rain = 0
KPD2 170725Z 31006KT 09/M01 A3006 RMK A01 T00921010  RH  049%=      5-min Rain = 0
KPD2 170726Z 31007KT 09/M01 A3006 RMK A01 T00911010  RH  049%=      5-min Rain = 0
KPD2 170727Z 31007KT 09/M01 A3006 RMK A01 T00911010  RH  049%=      5-min Rain = 0
KPD2 170728Z 31006KT 09/M01 A3006 RMK A01 T00921009  RH  049%=      5-min Rain = 0
KPD2 170729Z 32005KT 09/M01 A3006 RMK A01 T00911009  RH  049%=      5-min Rain = 0
KPD2 170730Z 32006KT 09/M01 A3006 RMK A01 T00911009  RH  049%=      5-min Rain = 0
KPD2 170731Z 31006KT 09/M01 A3006 RMK A01 T00911009  RH  049%=      5-min Rain = 0
KPD2 170732Z 31006KT 09/M01 A3006 RMK A01 T00911009  RH  049%=      5-min Rain = 0
KPD2 170733Z 32007KT 09/M01 A3006 RMK A01 T00901009  RH  050%=      5-min Rain = 0
KPD2 170734Z 30008KT 09/M01 A3006 RMK A01 T00911009  RH  050%=      5-min Rain = 0
KPD2 170735Z 31007KT 09/M01 A3006 RMK A01 T00931007  RH  049%=      5-min Rain = 0
KPD2 170736Z 31008KT 09/M01 A3006 RMK A01 T00941008  RH  049%=      5-min Rain = 0
KPD2 170737Z 31006KT 10/M01 A3006 RMK A01 T00951008  RH  049%=      5-min Rain = 0
KPD2 170738Z 31007KT 10/M01 A3006 RMK A01 T00951008  RH  049%=      5-min Rain = 0
KPD2 170739Z 32008KT 09/M01 A3006 RMK A01 T00941009  RH  049%=      5-min Rain = 0
KPD2 170740Z 31008KT 09/M01 A3006 RMK A01 T00941009  RH  049%=      5-min Rain = 0
KPD2 170741Z 31008KT 09/M01 A3006 RMK A01 T00931008  RH  049%=      5-min Rain = 0
KPD2 170742Z 31007KT 09/M01 A3006 RMK A01 T00941008  RH  049%=      5-min Rain = 0
KPD2 170743Z 30009KT 09/M01 A3006 RMK A01 T00931008  RH  049%=      5-min Rain = 0
KPD2 170744Z 31007KT 09/M01 A3006 RMK A01 T00931008  RH  049%=      5-min Rain = 0
KPD2 170745Z 32007KT 09/M01 A3006 RMK A01 T00921009  RH  049%=      5-min Rain = 0
KPD2 170746Z 31007KT 09/M01 A3006 RMK A01 T00911009  RH  050%=      5-min Rain = 0
KPD2 170747Z 31007KT 09/M01 A3006 RMK A01 T00911009  RH  050%=      5-min Rain = 0
KPD2 170748Z 31008KT 09/M01 A3006 RMK A01 T00901009  RH  050%=      5-min Rain = 0
KPD2 170749Z 31008KT 09/M01 A3006 RMK A01 T00891010  RH  050%=      5-min Rain = 0
KPD2 170750Z 31008KT 09/M01 A3006 RMK A01 T00891009  RH  050%=      5-min Rain = 0
KPD2 170751Z 31008KT 09/M01 A3006 RMK A01 T00891009  RH  050%=      5-min Rain = 0
KPD2 170752Z 31008KT 09/M01 A3006 RMK A01 T00901008  RH  050%=      5-min Rain = 0
KPD2 170753Z 31008KT 09/M01 A3006 RMK A01 T00901009  RH  050%=      5-min Rain = 0
KPD2 170754Z 30007KT 09/M01 A3006 RMK A01 T00891009  RH  050%=      5-min Rain = 0
KPD2 170755Z 31009KT 09/M01 A3006 RMK A01 T00881009  RH  050%=      5-min Rain = 0
KPD2 170756Z 30007KT 09/M01 A3006 RMK A01 T00881010  RH  050%=      5-min Rain = 0
KPD2 170757Z 30008KT 09/M01 A3006 RMK A01 T00871009  RH  051%=      5-min Rain = 0
KPD2 170758Z 30008KT 09/M01 A3006 RMK A01 T00871010  RH  051%=      5-min Rain = 0
KPD2 170759Z 30007KT 09/M01 A3006 RMK A01 T00861009  RH  051%=      5-min Rain = 0
KPD2 170800Z 30008KT 09/M01 A3006 RMK A01 T00861009  RH  051%=      5-min Rain = 0
KPD2 170801Z 30007KT 09/M01 A3006 RMK A01 T00861009  RH  051%=      5-min Rain = 0
KPD2 170802Z 30008KT 09/M01 A3006 RMK A01 T00861009  RH  051%=      5-min Rain = 0
KPD2 170803Z 30007KT 09/M01 A3006 RMK A01 T00861009  RH  051%=      5-min Rain = 0
KPD2 170804Z 31007KT 09/M01 A3006 RMK A01 T00851009  RH  051%=      5-min Rain = 0
KPD2 170805Z 30007KT 09/M01 A3007 RMK A01 T00851010  RH  051%=      5-min Rain = 0
KPD2 170806Z 31006KT 08/M01 A3007 RMK A01 T00841010  RH  052%=      5-min Rain = 0
KPD2 170807Z 31007KT 08/M01 A3007 RMK A01 T00841010  RH  052%=      5-min Rain = 0
KPD2 170808Z 31007KT 08/M01 A3007 RMK A01 T00831010  RH  052%=      5-min Rain = 0
KPD2 170809Z 31007KT 08/M01 A3007 RMK A01 T00841010  RH  052%=      5-min Rain = 0
KPD2 170810Z 32007KT 08/M01 A3007 RMK A01 T00831010  RH  052%=      5-min Rain = 0
KPD2 170811Z 32007KT 08/M01 A3007 RMK A01 T00831010  RH  052%=      5-min Rain = 0
KPD2 170812Z 32006KT 08/M01 A3007 RMK A01 T00821011  RH  052%=      5-min Rain = 0
KPD2 170813Z 32007KT 08/M01 A3007 RMK A01 T00811011  RH  052%=      5-min Rain = 0
KPD2 170814Z 32007KT 08/M01 A3007 RMK A01 T00811011  RH  052%=      5-min Rain = 0
KPD2 170815Z 32007KT 08/M01 A3007 RMK A01 T00811011  RH  052%=      5-min Rain = 0
KPD2 170816Z 32007KT 08/M01 A3007 RMK A01 T00811011  RH  052%=      5-min Rain = 0
KPD2 170817Z 32007KT 08/M01 A3007 RMK A01 T00811012  RH  052%=      5-min Rain = 0
KPD2 170818Z 33007KT 08/M01 A3007 RMK A01 T00811012  RH  052%=      5-min Rain = 0
KPD2 170819Z 32008KT 08/M01 A3007 RMK A01 T00811012  RH  052%=      5-min Rain = 0
KPD2 170820Z 32008KT 08/M01 A3007 RMK A01 T00821012  RH  052%=      5-min Rain = 0
KPD2 170821Z 32007KT 08/M01 A3007 RMK A01 T00821012  RH  051%=      5-min Rain = 0
KPD2 170822Z 32008KT 08/M01 A3007 RMK A01 T00831012  RH  051%=      5-min Rain = 0
KPD2 170823Z 32008KT 08/M01 A3007 RMK A01 T00821013  RH  051%=      5-min Rain = 0
KPD2 170824Z 32007KT 08/M01 A3007 RMK A01 T00821013  RH  051%=      5-min Rain = 0
KPD2 170825Z 31008KT 08/M01 A3007 RMK A01 T00811013  RH  051%=      5-min Rain = 0
KPD2 170826Z 31008KT 08/M01 A3007 RMK A01 T00811013  RH  051%=      5-min Rain = 0
KPD2 170827Z 31008KT 08/M01 A3007 RMK A01 T00811013  RH  051%=      5-min Rain = 0
KPD2 170828Z 31008KT 08/M01 A3007 RMK A01 T00811014  RH  051%=      5-min Rain = 0
KPD2 170829Z 31007KT 08/M01 A3007 RMK A01 T00821014  RH  051%=      5-min Rain = 0
KPD2 170830Z 31007KT 08/M01 A3007 RMK A01 T00821014  RH  051%=      5-min Rain = 0
KPD2 170831Z 32007KT 08/M02 A3007 RMK A01 T00821015  RH  051%=      5-min Rain = 0
KPD2 170832Z 32007KT 08/M02 A3007 RMK A01 T00811015  RH  051%=      5-min Rain = 0
KPD2 170833Z 31007KT 08/M02 A3007 RMK A01 T00811015  RH  051%=      5-min Rain = 0
KPD2 170834Z 31007KT 08/M02 A3007 RMK A01 T00811015  RH  051%=      5-min Rain = 0
KPD2 170835Z 31006KT 08/M02 A3007 RMK A01 T00811015  RH  051%=      5-min Rain = 0
KPD2 170836Z 31005KT 08/M02 A3007 RMK A01 T00811015  RH  051%=      5-min Rain = 0
KPD2 170837Z 31006KT 08/M02 A3007 RMK A01 T00811015  RH  051%=      5-min Rain = 0
KPD2 170838Z 31006KT 08/M02 A3007 RMK A01 T00811016  RH  051%=      5-min Rain = 0
KPD2 170839Z 31006KT 08/M02 A3007 RMK A01 T00801016  RH  051%=      5-min Rain = 0
KPD2 170840Z 31005KT 08/M02 A3007 RMK A01 T00801016  RH  051%=      5-min Rain = 0
KPD2 170841Z 33005KT 08/M02 A3007 RMK A01 T00801016  RH  051%=      5-min Rain = 0
KPD2 170842Z 33005KT 08/M02 A3007 RMK A01 T00791016  RH  051%=      5-min Rain = 0
KPD2 170843Z 33006KT 08/M02 A3007 RMK A01 T00781016  RH  051%=      5-min Rain = 0
KPD2 170844Z 34006KT 08/M02 A3007 RMK A01 T00781016  RH  051%=      5-min Rain = 0
KPD2 170845Z 34006KT 08/M02 A3007 RMK A01 T00781016  RH  051%=      5-min Rain = 0
KPD2 170846Z 34006KT 08/M02 A3007 RMK A01 T00781016  RH  051%=      5-min Rain = 0
KPD2 170847Z 34007KT 08/M02 A3007 RMK A01 T00771016  RH  051%=      5-min Rain = 0
KPD2 170848Z 34007KT 08/M02 A3007 RMK A01 T00781016  RH  051%=      5-min Rain = 0
KPD2 170849Z 34007KT 08/M02 A3007 RMK A01 T00771017  RH  051%=      5-min Rain = 0
KPD2 170850Z 34007KT 08/M02 A3007 RMK A01 T00771017  RH  051%=      5-min Rain = 0
KPD2 170851Z 33006KT 08/M02 A3007 RMK A01 T00771017  RH  051%=      5-min Rain = 0
KPD2 170852Z 33005KT 08/M02 A3007 RMK A01 T00761018  RH  051%=      5-min Rain = 0
KPD2 170853Z 33005KT 08/M02 A3007 RMK A01 T00751018  RH  052%=      5-min Rain = 0
KPD2 170854Z 34006KT 07/M02 A3007 RMK A01 T00741018  RH  052%=      5-min Rain = 0
KPD2 170855Z 33006KT 07/M02 A3007 RMK A01 T00741018  RH  052%=      5-min Rain = 0
KPD2 170856Z 34006KT 07/M02 A3007 RMK A01 T00741018  RH  052%=      5-min Rain = 0
KPD2 170857Z 35007KT 07/M02 A3007 RMK A01 T00741018  RH  052%=      5-min Rain = 0
KPD2 170858Z 35007KT 07/M02 A3007 RMK A01 T00741018  RH  052%=      5-min Rain = 0
KPD2 170859Z 35008KT 07/M02 A3007 RMK A01 T00741018  RH  052%=      5-min Rain = 0
KPD2 170900Z 35006KT 08/M02 A3007 RMK A01 T00751017  RH  052%=      5-min Rain = 0
KPD2 170901Z 34006KT 08/M02 A3007 RMK A01 T00751018  RH  052%=      5-min Rain = 0
KPD2 170902Z 33006KT 08/M02 A3007 RMK A01 T00751018  RH  052%=      5-min Rain = 0
KPD2 170903Z 33006KT 08/M02 A3007 RMK A01 T00761018  RH  052%=      5-min Rain = 0
KPD2 170904Z 34006KT 08/M02 A3007 RMK A01 T00761018  RH  052%=      5-min Rain = 0
KPD2 170905Z 34007KT 08/M02 A3008 RMK A01 T00751018  RH  052%=      5-min Rain = 0
KPD2 170906Z 34007KT 08/M02 A3007 RMK A01 T00751018  RH  052%=      5-min Rain = 0
KPD2 170907Z 34006KT 08/M02 A3007 RMK A01 T00751018  RH  052%=      5-min Rain = 0
KPD2 170908Z 34007KT 08/M02 A3008 RMK A01 T00751017  RH  052%=      5-min Rain = 0
KPD2 170909Z 35007KT 08/M02 A3008 RMK A01 T00761017  RH  052%=      5-min Rain = 0
KPD2 170910Z 34007KT 08/M02 A3008 RMK A01 T00761018  RH  052%=      5-min Rain = 0
KPD2 170911Z 34007KT 08/M02 A3008 RMK A01 T00761018  RH  052%=      5-min Rain = 0
KPD2 170912Z 33008KT 08/M02 A3008 RMK A01 T00771017  RH  051%=      5-min Rain = 0
KPD2 170913Z 32007KT 08/M02 A3008 RMK A01 T00771017  RH  051%=      5-min Rain = 0
KPD2 170914Z 32007KT 08/M02 A3008 RMK A01 T00781018  RH  051%=      5-min Rain = 0
KPD2 170915Z 32007KT 08/M02 A3008 RMK A01 T00781018  RH  051%=      5-min Rain = 0
KPD2 170916Z 32006KT 08/M02 A3008 RMK A01 T00781018  RH  051%=      5-min Rain = 0
KPD2 170917Z 32006KT 08/M02 A3008 RMK A01 T00791018  RH  050%=      5-min Rain = 0
KPD2 170918Z 32007KT 08/M02 A3008 RMK A01 T00791018  RH  050%=      5-min Rain = 0
KPD2 170919Z 32006KT 08/M02 A3008 RMK A01 T00781018  RH  050%=      5-min Rain = 0
KPD2 170920Z 33007KT 08/M02 A3008 RMK A01 T00781018  RH  050%=      5-min Rain = 0
KPD2 170921Z 32006KT 08/M02 A3008 RMK A01 T00781019  RH  050%=      5-min Rain = 0
KPD2 170922Z 33006KT 08/M02 A3008 RMK A01 T00781019  RH  050%=      5-min Rain = 0
KPD2 170923Z 33007KT 08/M02 A3008 RMK A01 T00781019  RH  050%=      5-min Rain = 0
KPD2 170924Z 33008KT 08/M02 A3008 RMK A01 T00781019  RH  051%=      5-min Rain = 0
KPD2 170925Z 32007KT 08/M02 A3008 RMK A01 T00791018  RH  050%=      5-min Rain = 0
KPD2 170926Z 32007KT 08/M02 A3008 RMK A01 T00801018  RH  050%=      5-min Rain = 0
KPD2 170927Z 33007KT 08/M02 A3008 RMK A01 T00801019  RH  050%=      5-min Rain = 0
KPD2 170928Z 32007KT 08/M02 A3008 RMK A01 T00801019  RH  050%=      5-min Rain = 0
KPD2 170929Z 32006KT 08/M02 A3008 RMK A01 T00801019  RH  050%=      5-min Rain = 0
KPD2 170930Z 32007KT 08/M02 A3008 RMK A01 T00801019  RH  050%=      5-min Rain = 0
KPD2 170931Z 32006KT 08/M02 A3008 RMK A01 T00791019  RH  050%=      5-min Rain = 0
KPD2 170932Z 32007KT 08/M02 A3009 RMK A01 T00781019  RH  050%=      5-min Rain = 0
KPD2 170933Z 32006KT 08/M02 A3009 RMK A01 T00781019  RH  050%=      5-min Rain = 0
KPD2 170934Z 32007KT 08/M02 A3009 RMK A01 T00781020  RH  050%=      5-min Rain = 0
KPD2 170935Z 33006KT 08/M02 A3009 RMK A01 T00771019  RH  050%=      5-min Rain = 0
KPD2 170936Z 33007KT 08/M02 A3009 RMK A01 T00761020  RH  051%=      5-min Rain = 0
KPD2 170937Z 32007KT 08/M02 A3009 RMK A01 T00761019  RH  051%=      5-min Rain = 0
KPD2 170938Z 32005KT 08/M02 A3009 RMK A01 T00761019  RH  051%=      5-min Rain = 0
KPD2 170939Z 33006KT 08/M02 A3009 RMK A01 T00761019  RH  051%=      5-min Rain = 0
KPD2 170940Z 32006KT 08/M02 A3009 RMK A01 T00751019  RH  051%=      5-min Rain = 0
KPD2 170941Z 32006KT 08/M02 A3009 RMK A01 T00751019  RH  051%=      5-min Rain = 0
KPD2 170942Z 32006KT 07/M02 A3009 RMK A01 T00741019  RH  051%=      5-min Rain = 0
KPD2 170943Z 32006KT 07/M02 A3009 RMK A01 T00741019  RH  052%=      5-min Rain = 0
KPD2 170944Z 32006KT 07/M02 A3009 RMK A01 T00741019  RH  052%=      5-min Rain = 0
KPD2 170945Z 31006KT 07/M02 A3009 RMK A01 T00741019  RH  052%=      5-min Rain = 0
KPD2 170946Z 32006KT 07/M02 A3009 RMK A01 T00731020  RH  052%=      5-min Rain = 0
KPD2 170947Z 32006KT 07/M02 A3009 RMK A01 T00731019  RH  052%=      5-min Rain = 0
KPD2 170948Z 32006KT 07/M02 A301 RMK A01 T00731020  RH  052%=      5-min Rain = 0
KPD2 170949Z 32005KT 07/M02 A301 RMK A01 T00721020  RH  052%=      5-min Rain = 0
KPD2 170950Z 32006KT 07/M02 A301 RMK A01 T00711020  RH  052%=      5-min Rain = 0
KPD2 170951Z 32005KT 07/M02 A301 RMK A01 T00711020  RH  052%=      5-min Rain = 0
KPD2 170952Z 32004KT 07/M02 A301 RMK A01 T00701020  RH  053%=      5-min Rain = 0
KPD2 170953Z 33005KT 07/M02 A301 RMK A01 T00701021  RH  053%=      5-min Rain = 0
KPD2 170954Z 34003KT 07/M02 A301 RMK A01 T00691020  RH  053%=      5-min Rain = 0
KPD2 170955Z 34003KT 07/M02 A301 RMK A01 T00691020  RH  053%=      5-min Rain = 0
KPD2 170956Z 33003KT 07/M02 A301 RMK A01 T00691020  RH  053%=      5-min Rain = 0
KPD2 170957Z 32003KT 07/M02 A301 RMK A01 T00691020  RH  053%=      5-min Rain = 0
KPD2 170958Z 33003KT 07/M02 A301 RMK A01 T00691020  RH  053%=      5-min Rain = 0
KPD2 170959Z 33003KT 07/M02 A301 RMK A01 T00691020  RH  053%=      5-min Rain = 0
KPD2 171000Z 34003KT 07/M02 A301 RMK A01 T00681021  RH  053%=      5-min Rain = 0
KPD2 171001Z 35003KT 07/M02 A301 RMK A01 T00671021  RH  053%=      5-min Rain = 0
KPD2 171002Z 35003KT 07/M02 A3011 RMK A01 T00671021  RH  053%=      5-min Rain = 0
KPD2 171003Z 34003KT 07/M02 A3011 RMK A01 T00661022  RH  054%=      5-min Rain = 0
KPD2 171004Z 35003KT 07/M02 A3011 RMK A01 T00651022  RH  054%=      5-min Rain = 0
KPD2 171005Z 34004KT 07/M02 A3011 RMK A01 T00651022  RH  054%=      5-min Rain = 0
KPD2 171006Z 33004KT 06/M02 A3011 RMK A01 T00641022  RH  054%=      5-min Rain = 0
KPD2 171007Z 32004KT 06/M02 A3011 RMK A01 T00621022  RH  055%=      5-min Rain = 0
KPD2 171008Z 32004KT 06/M02 A3011 RMK A01 T00621022  RH  055%=      5-min Rain = 0
KPD2 171009Z 33004KT 06/M02 A301 RMK A01 T00621021  RH  055%=      5-min Rain = 0
KPD2 171010Z 32004KT 06/M02 A301 RMK A01 T00631021  RH  055%=      5-min Rain = 0
KPD2 171011Z 32004KT 06/M02 A301 RMK A01 T00621021  RH  055%=      5-min Rain = 0
KPD2 171012Z 32004KT 06/M02 A301 RMK A01 T00621020  RH  056%=      5-min Rain = 0
KPD2 171013Z 32005KT 06/M02 A301 RMK A01 T00611021  RH  056%=      5-min Rain = 0
KPD2 171014Z 33003KT 06/M02 A301 RMK A01 T00621021  RH  056%=      5-min Rain = 0
KPD2 171015Z 32003KT 06/M02 A3011 RMK A01 T00611021  RH  056%=      5-min Rain = 0
KPD2 171016Z 31003KT 06/M02 A3011 RMK A01 T00601021  RH  056%=      5-min Rain = 0
KPD2 171017Z 29003KT 06/M02 A3011 RMK A01 T00591022  RH  056%=      5-min Rain = 0
KPD2 171018Z 29003KT 06/M02 A3011 RMK A01 T00581022  RH  057%=      5-min Rain = 0
KPD2 171019Z 30004KT 06/M02 A3011 RMK A01 T00571022  RH  057%=      5-min Rain = 0
KPD2 171020Z 29003KT 06/M02 A301 RMK A01 T00551022  RH  057%=      5-min Rain = 0
KPD2 171021Z 29004KT 05/M02 A3011 RMK A01 T00541022  RH  058%=      5-min Rain = 0
KPD2 171022Z 29004KT 05/M02 A301 RMK A01 T00531022  RH  058%=      5-min Rain = 0
KPD2 171023Z 29004KT 05/M02 A301 RMK A01 T00531022  RH  058%=      5-min Rain = 0
KPD2 171024Z 29005KT 05/M02 A3011 RMK A01 T00521022  RH  059%=      5-min Rain = 0
KPD2 171025Z 29005KT 05/M02 A3011 RMK A01 T00521022  RH  059%=      5-min Rain = 0
KPD2 171026Z 29006KT 05/M02 A3011 RMK A01 T00521022  RH  059%=      5-min Rain = 0
KPD2 171027Z 30007KT 05/M02 A3011 RMK A01 T00521022  RH  059%=      5-min Rain = 0
KPD2 171028Z 30006KT 05/M02 A3011 RMK A01 T00521022  RH  059%=      5-min Rain = 0
KPD2 171029Z 30005KT 05/M02 A3011 RMK A01 T00521022  RH  059%=      5-min Rain = 0
KPD2 171030Z 29005KT 05/M02 A3011 RMK A01 T00521022  RH  059%=      5-min Rain = 0
KPD2 171031Z 29005KT 05/M02 A3011 RMK A01 T00521022  RH  059%=      5-min Rain = 0
KPD2 171032Z 29005KT 05/M02 A3011 RMK A01 T00511022  RH  059%=      5-min Rain = 0
KPD2 171033Z 30005KT 05/M02 A3011 RMK A01 T00511022  RH  059%=      5-min Rain = 0
KPD2 171034Z 31005KT 05/M02 A3011 RMK A01 T00501022  RH  059%=      5-min Rain = 0
KPD2 171035Z 30004KT 05/M02 A3011 RMK A01 T00491023  RH  059%=      5-min Rain = 0
KPD2 171036Z 29003KT 05/M02 A3011 RMK A01 T00481024  RH  060%=      5-min Rain = 0
KPD2 171037Z 30004KT 05/M02 A3011 RMK A01 T00471023  RH  060%=      5-min Rain = 0
KPD2 171038Z 31004KT 05/M02 A3011 RMK A01 T00471024  RH  060%=      5-min Rain = 0
KPD2 171039Z 30003KT 05/M02 A3011 RMK A01 T00461023  RH  060%=      5-min Rain = 0
KPD2 171040Z 28003KT 05/M02 A3011 RMK A01 T00461023  RH  061%=      5-min Rain = 0
KPD2 171041Z 27003KT 05/M02 A3011 RMK A01 T00461024  RH  061%=      5-min Rain = 0
KPD2 171042Z 27003KT 05/M02 A3011 RMK A01 T00451024  RH  061%=      5-min Rain = 0
KPD2 171043Z 28004KT 05/M03 A3011 RMK A01 T00451025  RH  061%=      5-min Rain = 0
KPD2 171044Z 29004KT 04/M02 A3011 RMK A01 T00441024  RH  061%=      5-min Rain = 0
KPD2 171045Z 30002KT 04/M02 A3012 RMK A01 T00441024  RH  061%=      5-min Rain = 0
KPD2 171046Z 29001KT 04/M03 A3012 RMK A01 T00431025  RH  061%=      5-min Rain = 0
KPD2 171047Z 00000KT 04/M03 A3012 RMK A01 T00431025  RH  062%=      5-min Rain = 0
KPD2 171048Z 16001KT 04/M02 A3012 RMK A01 T00421024  RH  062%=      5-min Rain = 0
KPD2 171049Z 13002KT 04/M02 A3012 RMK A01 T00421024  RH  062%=      5-min Rain = 0
KPD2 171050Z 13002KT 04/M02 A3012 RMK A01 T00441023  RH  062%=      5-min Rain = 0
KPD2 171051Z 12004KT 05/M02 A3012 RMK A01 T00451024  RH  061%=      5-min Rain = 0
KPD2 171052Z 13004KT 05/M02 A3012 RMK A01 T00451024  RH  061%=      5-min Rain = 0
KPD2 171053Z 14003KT 05/M02 A3012 RMK A01 T00451024  RH  061%=      5-min Rain = 0
KPD2 171054Z 16002KT 05/M02 A3012 RMK A01 T00451024  RH  061%=      5-min Rain = 0
KPD2 171055Z 13004KT 04/M03 A3012 RMK A01 T00431026  RH  061%=      5-min Rain = 0
KPD2 171056Z 11004KT 04/M03 A3012 RMK A01 T00421025  RH  062%=      5-min Rain = 0
KPD2 171057Z 11003KT 04/M03 A3012 RMK A01 T00411025  RH  062%=      5-min Rain = 0
KPD2 171058Z 16001KT 04/M02 A3012 RMK A01 T00411024  RH  062%=      5-min Rain = 0
KPD2 171059Z 00000KT 04/M02 A3012 RMK A01 T00421024  RH  062%=      5-min Rain = 0
KPD2 171100Z 00000KT 04/M02 A3012 RMK A01 T00421024  RH  062%=      5-min Rain = 0
KPD2 171101Z 18001KT 04/M03 A3013 RMK A01 T00421025  RH  062%=      5-min Rain = 0
KPD2 171102Z 19000KT 04/M02 A3013 RMK A01 T00421024  RH  062%=      5-min Rain = 0
KPD2 171103Z 00000KT 04/M03 A3013 RMK A01 T00431025  RH  061%=      5-min Rain = 0
KPD2 171104Z 21001KT 04/M02 A3013 RMK A01 T00431024  RH  061%=      5-min Rain = 0
KPD2 171105Z 16001KT 04/M02 A3013 RMK A01 T00431024  RH  062%=      5-min Rain = 0
KPD2 171106Z 17001KT 04/M02 A3013 RMK A01 T00441024  RH  061%=      5-min Rain = 0
KPD2 171107Z 22002KT 04/M02 A3013 RMK A01 T00441024  RH  061%=      5-min Rain = 0
KPD2 171108Z 26002KT 04/M03 A3013 RMK A01 T00441025  RH  061%=      5-min Rain = 0
KPD2 171109Z 28000KT 04/M03 A3013 RMK A01 T00441025  RH  061%=      5-min Rain = 0
KPD2 171110Z 27001KT 04/M03 A3013 RMK A01 T00441025  RH  061%=      5-min Rain = 0
KPD2 171111Z 28002KT 04/M03 A3013 RMK A01 T00431026  RH  061%=      5-min Rain = 0
KPD2 171112Z 29002KT 04/M03 A3013 RMK A01 T00431026  RH  061%=      5-min Rain = 0
KPD2 171113Z 28002KT 04/M03 A3013 RMK A01 T00421026  RH  061%=      5-min Rain = 0
KPD2 171114Z 27002KT 04/M03 A3013 RMK A01 T00411027  RH  061%=      5-min Rain = 0
KPD2 171115Z 27003KT 04/M03 A3013 RMK A01 T00401027  RH  061%=      5-min Rain = 0
KPD2 171116Z 26003KT 04/M03 A3013 RMK A01 T00391028  RH  062%=      5-min Rain = 0
KPD2 171117Z 26003KT 04/M03 A3013 RMK A01 T00381028  RH  062%=      5-min Rain = 0
KPD2 171118Z 26004KT 04/M03 A3013 RMK A01 T00371028  RH  062%=      5-min Rain = 0
KPD2 171119Z 27003KT 04/M03 A3013 RMK A01 T00361029  RH  063%=      5-min Rain = 0
KPD2 171120Z 27002KT 03/M03 A3013 RMK A01 T00341029  RH  063%=      5-min Rain = 0
KPD2 171121Z 27002KT 03/M03 A3013 RMK A01 T00331029  RH  064%=      5-min Rain = 0
KPD2 171122Z 28002KT 03/M03 A3013 RMK A01 T00321029  RH  064%=      5-min Rain = 0
KPD2 171123Z 29002KT 03/M03 A3013 RMK A01 T00321028  RH  065%=      5-min Rain = 0
KPD2 171124Z 29001KT 03/M03 A3013 RMK A01 T00311028  RH  065%=      5-min Rain = 0
KPD2 171125Z 31001KT 03/M03 A3013 RMK A01 T00301028  RH  066%=      5-min Rain = 0
KPD2 171126Z 32001KT 03/M03 A3013 RMK A01 T00301027  RH  066%=      5-min Rain = 0
KPD2 171127Z 30002KT 03/M03 A3013 RMK A01 T00301027  RH  066%=      5-min Rain = 0
KPD2 171128Z 33002KT 03/M03 A3013 RMK A01 T00301027  RH  066%=      5-min Rain = 0
KPD2 171129Z 32002KT 03/M03 A3013 RMK A01 T00301028  RH  066%=      5-min Rain = 0
KPD2 171130Z 33003KT 03/M03 A3013 RMK A01 T00301028  RH  066%=      5-min Rain = 0
KPD2 171131Z 33003KT 03/M03 A3013 RMK A01 T00301028  RH  066%=      5-min Rain = 0
KPD2 171132Z 33002KT 03/M03 A3013 RMK A01 T00291029  RH  066%=      5-min Rain = 0
KPD2 171133Z 33003KT 03/M03 A3013 RMK A01 T00281030  RH  066%=      5-min Rain = 0
KPD2 171134Z 32003KT 03/M03 A3013 RMK A01 T00281029  RH  066%=      5-min Rain = 0
KPD2 171135Z 31004KT 03/M03 A3012 RMK A01 T00281029  RH  066%=      5-min Rain = 0
KPD2 171136Z 31005KT 03/M03 A3013 RMK A01 T00271030  RH  066%=      5-min Rain = 0
KPD2 171137Z 30005KT 03/M03 A3013 RMK A01 T00261030  RH  066%=      5-min Rain = 0
KPD2 171138Z 30004KT 03/M03 A3013 RMK A01 T00261029  RH  067%=      5-min Rain = 0
KPD2 171139Z 29005KT 03/M03 A3013 RMK A01 T00261029  RH  067%=      5-min Rain = 0
KPD2 171140Z 29005KT 03/M03 A3013 RMK A01 T00271027  RH  068%=      5-min Rain = 0
KPD2 171141Z 29004KT 03/M03 A3013 RMK A01 T00291025  RH  068%=      5-min Rain = 0
KPD2 171142Z 30005KT 03/M03 A3013 RMK A01 T00301025  RH  067%=      5-min Rain = 0
KPD2 171143Z 30006KT 03/M03 A3013 RMK A01 T00311026  RH  066%=      5-min Rain = 0
KPD2 171144Z 30005KT 03/M03 A3013 RMK A01 T00311026  RH  066%=      5-min Rain = 0
KPD2 171145Z 31006KT 03/M03 A3013 RMK A01 T00301026  RH  066%=      5-min Rain = 0
KPD2 171146Z 32004KT 03/M03 A3013 RMK A01 T00301026  RH  066%=      5-min Rain = 0
KPD2 171147Z 31003KT 03/M03 A3013 RMK A01 T00301027  RH  066%=      5-min Rain = 0
KPD2 171148Z 32003KT 03/M03 A3013 RMK A01 T00291027  RH  067%=      5-min Rain = 0
KPD2 171149Z 31003KT 03/M03 A3013 RMK A01 T00281027  RH  067%=      5-min Rain = 0
KPD2 171150Z 31002KT 03/M03 A3013 RMK A01 T00281027  RH  067%=      5-min Rain = 0
KPD2 171151Z 32002KT 03/M03 A3013 RMK A01 T00271027  RH  067%=      5-min Rain = 0
KPD2 171152Z 31002KT 03/M03 A3013 RMK A01 T00281026  RH  068%=      5-min Rain = 0
KPD2 171153Z 30003KT 03/M03 A3013 RMK A01 T00281026  RH  068%=      5-min Rain = 0
KPD2 171154Z 31003KT 03/M03 A3013 RMK A01 T00291025  RH  068%=      5-min Rain = 0
KPD2 171155Z 32002KT 03/M03 A3013 RMK A01 T00291026  RH  067%=      5-min Rain = 0
KPD2 171156Z 32002KT 03/M03 A3013 RMK A01 T00291026  RH  067%=      5-min Rain = 0
KPD2 171157Z 33002KT 03/M03 A3013 RMK A01 T00281027  RH  067%=      5-min Rain = 0
KPD2 171158Z 35002KT 03/M03 A3013 RMK A01 T00281027  RH  067%=      5-min Rain = 0
KPD2 171159Z 36003KT 03/M03 A3013 RMK A01 T00281028  RH  067%=      5-min Rain = 0
KPD2 171200Z 35004KT 03/M03 A3013 RMK A01 T00271029  RH  067%=      5-min Rain = 0
KPD2 171201Z 33005KT 03/M03 A3013 RMK A01 T00251029  RH  067%=      5-min Rain = 0
KPD2 171202Z 34004KT 03/M03 A3013 RMK A01 T00251029  RH  067%=      5-min Rain = 0
KPD2 171203Z 35004KT 03/M03 A3013 RMK A01 T00251029  RH  068%=      5-min Rain = 0
KPD2 171204Z 34004KT 03/M03 A3013 RMK A01 T00261028  RH  068%=      5-min Rain = 0
KPD2 171205Z 34004KT 03/M03 A3013 RMK A01 T00271027  RH  067%=      5-min Rain = 0
KPD2 171206Z 31003KT 03/M03 A3013 RMK A01 T00281027  RH  067%=      5-min Rain = 0
KPD2 171207Z 29003KT 03/M03 A3013 RMK A01 T00291027  RH  066%=      5-min Rain = 0
KPD2 171208Z 29003KT 03/M03 A3013 RMK A01 T00291028  RH  066%=      5-min Rain = 0
KPD2 171209Z 29003KT 03/M03 A3013 RMK A01 T00291028  RH  066%=      5-min Rain = 0
KPD2 171210Z 29004KT 03/M03 A3013 RMK A01 T00291029  RH  066%=      5-min Rain = 0
KPD2 171211Z 29005KT 03/M03 A3013 RMK A01 T00291028  RH  066%=      5-min Rain = 0
KPD2 171212Z 28004KT 03/M03 A3013 RMK A01 T00291027  RH  066%=      5-min Rain = 0
KPD2 171213Z 27004KT 03/M03 A3013 RMK A01 T00301027  RH  066%=      5-min Rain = 0
KPD2 171214Z 27003KT 03/M03 A3013 RMK A01 T00301028  RH  066%=      5-min Rain = 0
KPD2 171215Z 28003KT 03/M03 A3013 RMK A01 T00291028  RH  066%=      5-min Rain = 0
KPD2 171216Z 30003KT 03/M03 A3013 RMK A01 T00291028  RH  066%=      5-min Rain = 0
KPD2 171217Z 29001KT 03/M03 A3013 RMK A01 T00291028  RH  066%=      5-min Rain = 0
KPD2 171218Z 31003KT 03/M03 A3013 RMK A01 T00281028  RH  066%=      5-min Rain = 0
KPD2 171219Z 32002KT 03/M03 A3013 RMK A01 T00281028  RH  067%=      5-min Rain = 0
KPD2 171220Z 34001KT 03/M03 A3013 RMK A01 T00281028  RH  067%=      5-min Rain = 0
KPD2 171221Z 34003KT 03/M03 A3013 RMK A01 T00271029  RH  067%=      5-min Rain = 0
KPD2 171222Z 01002KT 03/M03 A3013 RMK A01 T00261029  RH  067%=      5-min Rain = 0
KPD2 171223Z 00003KT 03/M03 A3014 RMK A01 T00251029  RH  067%=      5-min Rain = 0
KPD2 171224Z 36002KT 03/M03 A3014 RMK A01 T00251029  RH  068%=      5-min Rain = 0
KPD2 171225Z 35003KT 02/M03 A3014 RMK A01 T00241029  RH  068%=      5-min Rain = 0
KPD2 171226Z 01003KT 02/M03 A3014 RMK A01 T00231030  RH  068%=      5-min Rain = 0
KPD2 171227Z 36002KT 02/M03 A3014 RMK A01 T00231029  RH  068%=      5-min Rain = 0
KPD2 171228Z 34003KT 02/M03 A3014 RMK A01 T00241028  RH  069%=      5-min Rain = 0
KPD2 171229Z 34003KT 02/M03 A3014 RMK A01 T00241028  RH  068%=      5-min Rain = 0
KPD2 171230Z 34003KT 03/M03 A3014 RMK A01 T00251027  RH  068%=      5-min Rain = 0
KPD2 171231Z 36003KT 03/M03 A3014 RMK A01 T00261027  RH  068%=      5-min Rain = 0
KPD2 171232Z 32003KT 03/M03 A3014 RMK A01 T00271027  RH  068%=      5-min Rain = 0
KPD2 171233Z 33002KT 03/M03 A3014 RMK A01 T00271027  RH  067%=      5-min Rain = 0
KPD2 171234Z 32003KT 03/M03 A3014 RMK A01 T00271028  RH  067%=      5-min Rain = 0
KPD2 171235Z 33003KT 03/M03 A3014 RMK A01 T00271027  RH  067%=      5-min Rain = 0
KPD2 171236Z 33003KT 03/M03 A3014 RMK A01 T00271028  RH  067%=      5-min Rain = 0
KPD2 171237Z 32003KT 03/M03 A3014 RMK A01 T00261029  RH  067%=      5-min Rain = 0
KPD2 171238Z 32003KT 03/M03 A3014 RMK A01 T00251029  RH  067%=      5-min Rain = 0
KPD2 171239Z 32003KT 02/M03 A3014 RMK A01 T00241030  RH  068%=      5-min Rain = 0
KPD2 171240Z 32002KT 02/M03 A3014 RMK A01 T00241029  RH  068%=      5-min Rain = 0
KPD2 171241Z 32002KT 02/M03 A3014 RMK A01 T00241029  RH  068%=      5-min Rain = 0
KPD2 171242Z 31002KT 02/M03 A3014 RMK A01 T00231029  RH  068%=      5-min Rain = 0
KPD2 171243Z 31002KT 02/M03 A3014 RMK A01 T00231029  RH  068%=      5-min Rain = 0
KPD2 171244Z 31003KT 02/M03 A3014 RMK A01 T00231029  RH  069%=      5-min Rain = 0
KPD2 171245Z 32003KT 02/M03 A3014 RMK A01 T00221029  RH  069%=      5-min Rain = 0
KPD2 171246Z 33002KT 02/M03 A3014 RMK A01 T00221030  RH  069%=      5-min Rain = 0
KPD2 171247Z 34003KT 02/M03 A3014 RMK A01 T00211030  RH  069%=      5-min Rain = 0
KPD2 171248Z 35003KT 02/M03 A3014 RMK A01 T00211030  RH  069%=      5-min Rain = 0
KPD2 171249Z 34004KT 02/M03 A3014 RMK A01 T00201030  RH  069%=      5-min Rain = 0
KPD2 171250Z 33004KT 02/M03 A3015 RMK A01 T00201030  RH  069%=      5-min Rain = 0
KPD2 171251Z 33004KT 02/M03 A3015 RMK A01 T00201030  RH  069%=      5-min Rain = 0
KPD2 171252Z 33004KT 02/M03 A3015 RMK A01 T00201029  RH  070%=      5-min Rain = 0
KPD2 171253Z 31003KT 02/M03 A3015 RMK A01 T00201030  RH  069%=      5-min Rain = 0
KPD2 171254Z 32003KT 02/M03 A3015 RMK A01 T00201030  RH  070%=      5-min Rain = 0
KPD2 171255Z 31004KT 02/M03 A3015 RMK A01 T00201030  RH  070%=      5-min Rain = 0
KPD2 171256Z 31005KT 02/M03 A3015 RMK A01 T00211029  RH  069%=      5-min Rain = 0
KPD2 171257Z 30004KT 02/M03 A3015 RMK A01 T00211030  RH  069%=      5-min Rain = 0
KPD2 171258Z 30005KT 02/M03 A3015 RMK A01 T00211030  RH  069%=      5-min Rain = 0
KPD2 171259Z 29004KT 02/M03 A3015 RMK A01 T00201031  RH  069%=      5-min Rain = 0
KPD2 171300Z 29004KT 02/M03 A3015 RMK A01 T00191032  RH  069%=      5-min Rain = 0
KPD2 171301Z 29004KT 02/M03 A3015 RMK A01 T00181032  RH  069%=      5-min Rain = 0
KPD2 171302Z 29004KT 02/M03 A3015 RMK A01 T00171033  RH  069%=      5-min Rain = 0
KPD2 171303Z 30004KT 02/M03 A3015 RMK A01 T00161034  RH  070%=      5-min Rain = 0
KPD2 171304Z 30004KT 01/M04 A3015 RMK A01 T00141035  RH  070%=      5-min Rain = 0
KPD2 171305Z 31003KT 01/M04 A3015 RMK A01 T00131035  RH  071%=      5-min Rain = 0
KPD2 171306Z 32003KT 01/M04 A3015 RMK A01 T00111035  RH  071%=      5-min Rain = 0
KPD2 171307Z 32003KT 01/M04 A3015 RMK A01 T00101035  RH  072%=      5-min Rain = 0
KPD2 171308Z 32004KT 01/M04 A3015 RMK A01 T00091035  RH  072%=      5-min Rain = 0
KPD2 171309Z 33003KT 01/M04 A3015 RMK A01 T00081035  RH  073%=      5-min Rain = 0
KPD2 171310Z 33003KT 01/M04 A3015 RMK A01 T00081035  RH  073%=      5-min Rain = 0
KPD2 171311Z 31004KT 01/M04 A3016 RMK A01 T00081035  RH  073%=      5-min Rain = 0
KPD2 171312Z 31005KT 01/M04 A3016 RMK A01 T00071035  RH  074%=      5-min Rain = 0
KPD2 171313Z 31004KT 01/M04 A3016 RMK A01 T00081035  RH  073%=      5-min Rain = 0
KPD2 171314Z 31005KT 01/M03 A3016 RMK A01 T00081034  RH  073%=      5-min Rain = 0
KPD2 171315Z 32004KT 01/M04 A3016 RMK A01 T00081035  RH  073%=      5-min Rain = 0
KPD2 171316Z 33005KT 01/M04 A3016 RMK A01 T00091035  RH  073%=      5-min Rain = 0
KPD2 171317Z 33004KT 01/M04 A3016 RMK A01 T00081035  RH  073%=      5-min Rain = 0
KPD2 171318Z 34004KT 01/M03 A3016 RMK A01 T00091034  RH  073%=      5-min Rain = 0
KPD2 171319Z 35004KT 01/M03 A3016 RMK A01 T00091034  RH  073%=      5-min Rain = 0
KPD2 171320Z 35004KT 01/M03 A3016 RMK A01 T00091034  RH  073%=      5-min Rain = 0
KPD2 171321Z 34004KT 01/M03 A3016 RMK A01 T00091034  RH  073%=      5-min Rain = 0
KPD2 171322Z 33004KT 01/M03 A3016 RMK A01 T00091034  RH  073%=      5-min Rain = 0
KPD2 171323Z 34004KT 01/M03 A3016 RMK A01 T00081034  RH  073%=      5-min Rain = 0
KPD2 171324Z 34005KT 01/M03 A3016 RMK A01 T00091033  RH  074%=      5-min Rain = 0
KPD2 171325Z 35004KT 01/M03 A3016 RMK A01 T00101032  RH  073%=      5-min Rain = 0
KPD2 171326Z 34004KT 01/M03 A3016 RMK A01 T00111032  RH  073%=      5-min Rain = 0
KPD2 171327Z 34004KT 01/M03 A3016 RMK A01 T00111032  RH  073%=      5-min Rain = 0
KPD2 171328Z 35004KT 01/M03 A3016 RMK A01 T00121032  RH  073%=      5-min Rain = 0
KPD2 171329Z 35003KT 01/M03 A3016 RMK A01 T00111033  RH  072%=      5-min Rain = 0
KPD2 171330Z 35004KT 01/M03 A3016 RMK A01 T00111033  RH  072%=      5-min Rain = 0
KPD2 171331Z 36005KT 01/M03 A3016 RMK A01 T00111033  RH  073%=      5-min Rain = 0
KPD2 171332Z 35004KT 01/M03 A3016 RMK A01 T00111033  RH  072%=      5-min Rain = 0
KPD2 171333Z 34003KT 01/M03 A3016 RMK A01 T00101034  RH  072%=      5-min Rain = 0
KPD2 171334Z 35003KT 01/M03 A3016 RMK A01 T00101033  RH  073%=      5-min Rain = 0
KPD2 171335Z 36004KT 01/M03 A3016 RMK A01 T00101033  RH  073%=      5-min Rain = 0
KPD2 171336Z 36005KT 01/M03 A3016 RMK A01 T00101033  RH  073%=      5-min Rain = 0
KPD2 171337Z 36004KT 01/M03 A3016 RMK A01 T00111032  RH  073%=      5-min Rain = 0
KPD2 171338Z 35004KT 01/M03 A3016 RMK A01 T00111032  RH  073%=      5-min Rain = 0
KPD2 171339Z 36004KT 01/M03 A3016 RMK A01 T00111033  RH  073%=      5-min Rain = 0
KPD2 171340Z 35004KT 01/M03 A3016 RMK A01 T00111033  RH  073%=      5-min Rain = 0
KPD2 171341Z 34003KT 01/M03 A3016 RMK A01 T00111033  RH  073%=      5-min Rain = 0
KPD2 171342Z 34004KT 01/M03 A3016 RMK A01 T00111033  RH  073%=      5-min Rain = 0
KPD2 171343Z 33003KT 01/M03 A3016 RMK A01 T00111033  RH  072%=      5-min Rain = 0
KPD2 171344Z 34003KT 01/M03 A3016 RMK A01 T00111033  RH  072%=      5-min Rain = 0
KPD2 171345Z 34003KT 01/M03 A3016 RMK A01 T00111034  RH  072%=      5-min Rain = 0
KPD2 171346Z 34002KT 01/M03 A3016 RMK A01 T00101034  RH  072%=      5-min Rain = 0
KPD2 171347Z 34001KT 01/M03 A3016 RMK A01 T00101034  RH  072%=      5-min Rain = 0
KPD2 171348Z 34001KT 01/M04 A3016 RMK A01 T00091035  RH  072%=      5-min Rain = 0
KPD2 171349Z 34000KT 01/M04 A3016 RMK A01 T00091035  RH  072%=      5-min Rain = 0
KPD2 171350Z 00000KT 01/M04 A3016 RMK A01 T00081036  RH  073%=      5-min Rain = 0
KPD2 171351Z 00000KT 01/M04 A3016 RMK A01 T00071036  RH  073%=      5-min Rain = 0
KPD2 171352Z 00000KT 01/M04 A3016 RMK A01 T00071035  RH  073%=      5-min Rain = 0
KPD2 171353Z 34001KT 01/M04 A3016 RMK A01 T00071035  RH  073%=      5-min Rain = 0
KPD2 171354Z 34000KT 01/M04 A3017 RMK A01 T00061036  RH  074%=      5-min Rain = 0
KPD2 171355Z 00000KT 01/M04 A3017 RMK A01 T00061036  RH  074%=      5-min Rain = 0
KPD2 171356Z 00000KT 01/M04 A3017 RMK A01 T00051036  RH  074%=      5-min Rain = 0
KPD2 171357Z 00000KT 01/M04 A3017 RMK A01 T00051035  RH  074%=      5-min Rain = 0
KPD2 171358Z 00000KT 01/M04 A3017 RMK A01 T00051035  RH  074%=      5-min Rain = 0
KPD2 171359Z 34000KT 01/M04 A3017 RMK A01 T00051035  RH  074%=      5-min Rain = 0
KPD2 171400Z 34001KT 01/M04 A3017 RMK A01 T00051036  RH  074%=      5-min Rain = 0
KPD2 171401Z 34002KT 01/M03 A3017 RMK A01 T00051034  RH  075%=      5-min Rain = 0
KPD2 171402Z 34002KT 01/M03 A3017 RMK A01 T00061034  RH  075%=      5-min Rain = 0
KPD2 171403Z 35003KT 01/M04 A3017 RMK A01 T00061035  RH  074%=      5-min Rain = 0
KPD2 171404Z 35003KT 01/M04 A3017 RMK A01 T00051037  RH  074%=      5-min Rain = 0
KPD2 171405Z 34003KT 00/M04 A3017 RMK A01 T00031038  RH  074%=      5-min Rain = 0
KPD2 171406Z 34003KT 00/M04 A3017 RMK A01 T00021038  RH  074%=      5-min Rain = 0
KPD2 171407Z 35004KT 00/M04 A3017 RMK A01 T00011039  RH  074%=      5-min Rain = 0
KPD2 171408Z 36003KT 00/04 A3017 RMK A01 T00000-40  RH  075%=      5-min Rain = 0
KPD2 171409Z 00003KT M00/M04 A3017 RMK A01 T10011041  RH  074%=      5-min Rain = 0
KPD2 171410Z 01001KT M00/M04 A3017 RMK A01 T10021041  RH  075%=      5-min Rain = 0
KPD2 171411Z 30000KT M00/M04 A3017 RMK A01 T10021040  RH  076%=      5-min Rain = 0
KPD2 171412Z 23002KT M00/M04 A3017 RMK A01 T10021038  RH  076%=      5-min Rain = 0
KPD2 171413Z 23001KT M00/M04 A3017 RMK A01 T10021039  RH  076%=      5-min Rain = 0
KPD2 171414Z 23001KT M00/M04 A3017 RMK A01 T10031040  RH  076%=      5-min Rain = 0
KPD2 171415Z 23001KT M00/M04 A3017 RMK A01 T10041041  RH  076%=      5-min Rain = 0
KPD2 171416Z 23000KT M00/M04 A3017 RMK A01 T10041040  RH  077%=      5-min Rain = 0
KPD2 171417Z 15000KT M00/M04 A3017 RMK A01 T10041040  RH  077%=      5-min Rain = 0
KPD2 171418Z 00000KT M00/M04 A3017 RMK A01 T10041039  RH  077%=      5-min Rain = 0
KPD2 171419Z 00000KT M00/M04 A3017 RMK A01 T10031038  RH  077%=      5-min Rain = 0
KPD2 171420Z 23000KT M00/M04 A3017 RMK A01 T10031038  RH  077%=      5-min Rain = 0
KPD2 171421Z 23002KT M00/M04 A3017 RMK A01 T10021038  RH  077%=      5-min Rain = 0
KPD2 171422Z 23001KT M00/M04 A3017 RMK A01 T10021038  RH  077%=      5-min Rain = 0
KPD2 171423Z 27002KT M00/M04 A3017 RMK A01 T10021039  RH  076%=      5-min Rain = 0
KPD2 171424Z 27002KT M00/M04 A3017 RMK A01 T10021039  RH  076%=      5-min Rain = 0
KPD2 171425Z 26001KT M00/M04 A3017 RMK A01 T10021038  RH  077%=      5-min Rain = 0
KPD2 171426Z 25001KT M00/M04 A3017 RMK A01 T10011037  RH  077%=      5-min Rain = 0
KPD2 171427Z 24001KT 00/M04 A3017 RMK A01 T00011036  RH  076%=      5-min Rain = 0
KPD2 171428Z 13001KT 00/M04 A3017 RMK A01 T00031035  RH  076%=      5-min Rain = 0
KPD2 171429Z 06002KT 01/M04 A3017 RMK A01 T00051035  RH  075%=      5-min Rain = 0
KPD2 171430Z 05002KT 01/M03 A3017 RMK A01 T00061034  RH  074%=      5-min Rain = 0
KPD2 171431Z 05001KT 01/M03 A3017 RMK A01 T00071034  RH  074%=      5-min Rain = 0
KPD2 171432Z 04000KT 01/M03 A3017 RMK A01 T00081034  RH  073%=      5-min Rain = 0
KPD2 171433Z 00000KT 01/M04 A3017 RMK A01 T00081035  RH  073%=      5-min Rain = 0
KPD2 171434Z 04000KT 01/M04 A3017 RMK A01 T00091035  RH  073%=      5-min Rain = 0
KPD2 171435Z 00000KT 01/M04 A3017 RMK A01 T00091035  RH  073%=      5-min Rain = 0
KPD2 171436Z 00000KT 01/M04 A3017 RMK A01 T00091035  RH  072%=      5-min Rain = 0
KPD2 171437Z 04000KT 01/M03 A3017 RMK A01 T00101034  RH  072%=      5-min Rain = 0
KPD2 171438Z 04000KT 01/M03 A3017 RMK A01 T00101034  RH  072%=      5-min Rain = 0
KPD2 171439Z 04000KT 01/M03 A3018 RMK A01 T00111034  RH  072%=      5-min Rain = 0
KPD2 171440Z 00000KT 01/M03 A3018 RMK A01 T00131033  RH  072%=      5-min Rain = 0
KPD2 171441Z 00000KT 01/M03 A3018 RMK A01 T00141033  RH  071%=      5-min Rain = 0
KPD2 171442Z 00000KT 02/M03 A3018 RMK A01 T00161033  RH  070%=      5-min Rain = 0
KPD2 171443Z 06000KT 02/M03 A3018 RMK A01 T00171032  RH  069%=      5-min Rain = 0
KPD2 171444Z 06001KT 02/M03 A3018 RMK A01 T00191032  RH  069%=      5-min Rain = 0
KPD2 171445Z 06000KT 02/M03 A3018 RMK A01 T00201032  RH  068%=      5-min Rain = 0
KPD2 171446Z 06000KT 02/M03 A3018 RMK A01 T00211032  RH  068%=      5-min Rain = 0
KPD2 171447Z 06000KT 02/M03 A3018 RMK A01 T00231031  RH  068%=      5-min Rain = 0
KPD2 171448Z 06000KT 02/M03 A3018 RMK A01 T00241031  RH  067%=      5-min Rain = 0
KPD2 171449Z 00000KT 03/M03 A3018 RMK A01 T00261032  RH  066%=      5-min Rain = 0
KPD2 171450Z 36001KT 03/M03 A3018 RMK A01 T00271032  RH  065%=      5-min Rain = 0
KPD2 171451Z 34002KT 03/M03 A3018 RMK A01 T00271032  RH  065%=      5-min Rain = 0
KPD2 171452Z 34002KT 03/M03 A3018 RMK A01 T00261033  RH  065%=      5-min Rain = 0
KPD2 171453Z 35002KT 03/M03 A3018 RMK A01 T00261033  RH  065%=      5-min Rain = 0
KPD2 171454Z 34003KT 03/M03 A3018 RMK A01 T00251033  RH  066%=      5-min Rain = 0
KPD2 171455Z 32002KT 03/M03 A3018 RMK A01 T00251033  RH  066%=      5-min Rain = 0
KPD2 171456Z 31002KT 02/M03 A3019 RMK A01 T00241033  RH  066%=      5-min Rain = 0
KPD2 171457Z 32002KT 02/M03 A3019 RMK A01 T00241032  RH  067%=      5-min Rain = 0
KPD2 171458Z 32002KT 02/M03 A3019 RMK A01 T00241032  RH  066%=      5-min Rain = 0
KPD2 171459Z 29001KT 02/M03 A3019 RMK A01 T00241032  RH  066%=      5-min Rain = 0
KPD2 171500Z 28001KT 02/M03 A3019 RMK A01 T00241032  RH  067%=      5-min Rain = 0
KPD2 171501Z 28001KT 03/M03 A3019 RMK A01 T00251031  RH  067%=      5-min Rain = 0
KPD2 171502Z 26002KT 03/M03 A3019 RMK A01 T00251031  RH  066%=      5-min Rain = 0
KPD2 171503Z 26002KT 03/M03 A3019 RMK A01 T00261031  RH  066%=      5-min Rain = 0
KPD2 171504Z 26001KT 03/M03 A3019 RMK A01 T00251031  RH  066%=      5-min Rain = 0
KPD2 171505Z 26000KT 03/M03 A3019 RMK A01 T00251031  RH  067%=      5-min Rain = 0
KPD2 171506Z 32002KT 03/M03 A3019 RMK A01 T00251030  RH  067%=      5-min Rain = 0
KPD2 171507Z 32002KT 03/M03 A3019 RMK A01 T00261030  RH  067%=      5-min Rain = 0
KPD2 171508Z 33002KT 03/M03 A302 RMK A01 T00261029  RH  067%=      5-min Rain = 0
KPD2 171509Z 34002KT 03/M03 A302 RMK A01 T00271029  RH  067%=      5-min Rain = 0
KPD2 171510Z 34002KT 03/M03 A3019 RMK A01 T00271030  RH  066%=      5-min Rain = 0
KPD2 171511Z 35002KT 03/M03 A3019 RMK A01 T00271030  RH  066%=      5-min Rain = 0
KPD2 171512Z 35002KT 03/M03 A3019 RMK A01 T00281028  RH  067%=      5-min Rain = 0
KPD2 171513Z 32002KT 03/M03 A3019 RMK A01 T00281029  RH  066%=      5-min Rain = 0
KPD2 171514Z 31002KT 03/M03 A3019 RMK A01 T00281030  RH  066%=      5-min Rain = 0
KPD2 171515Z 29002KT 03/M03 A3019 RMK A01 T00291029  RH  066%=      5-min Rain = 0
KPD2 171516Z 27001KT 03/M03 A3019 RMK A01 T00291030  RH  065%=      5-min Rain = 0
KPD2 171517Z 26001KT 03/M03 A3019 RMK A01 T00301028  RH  066%=      5-min Rain = 0
KPD2 171518Z 26001KT 03/M03 A3019 RMK A01 T00311027  RH  066%=      5-min Rain = 0
KPD2 171519Z 26001KT 03/M03 A3019 RMK A01 T00331026  RH  066%=      5-min Rain = 0
KPD2 171520Z 26001KT 03/M03 A3019 RMK A01 T00341026  RH  065%=      5-min Rain = 0
KPD2 171521Z 26002KT 04/M03 A3019 RMK A01 T00351027  RH  064%=      5-min Rain = 0
KPD2 171522Z 25002KT 04/M03 A3019 RMK A01 T00361026  RH  064%=      5-min Rain = 0
KPD2 171523Z 25001KT 04/M03 A3019 RMK A01 T00381025  RH  063%=      5-min Rain = 0
KPD2 171524Z 26001KT 04/M02 A3019 RMK A01 T00401024  RH  063%=      5-min Rain = 0
KPD2 171525Z 26001KT 04/M02 A3019 RMK A01 T00421024  RH  063%=      5-min Rain = 0
KPD2 171526Z 26000KT 04/M02 A3019 RMK A01 T00431024  RH  062%=      5-min Rain = 0
KPD2 171527Z 25001KT 04/M02 A3019 RMK A01 T00441024  RH  061%=      5-min Rain = 0
KPD2 171528Z 24001KT 05/M02 A3019 RMK A01 T00461023  RH  061%=      5-min Rain = 0
KPD2 171529Z 21002KT 05/M02 A3019 RMK A01 T00471023  RH  060%=      5-min Rain = 0
KPD2 171530Z 21003KT 05/M02 A3019 RMK A01 T00481024  RH  060%=      5-min Rain = 0
KPD2 171531Z 21003KT 05/M02 A3019 RMK A01 T00491024  RH  059%=      5-min Rain = 0
KPD2 171532Z 22003KT 05/M03 A3019 RMK A01 T00491025  RH  059%=      5-min Rain = 0
KPD2 171533Z 22001KT 05/M03 A3019 RMK A01 T00501025  RH  058%=      5-min Rain = 0
KPD2 171534Z 23001KT 05/M03 A302 RMK A01 T00501026  RH  058%=      5-min Rain = 0
KPD2 171535Z 23000KT 05/M03 A302 RMK A01 T00521025  RH  057%=      5-min Rain = 0
KPD2 171536Z 23000KT 05/M03 A302 RMK A01 T00531026  RH  057%=      5-min Rain = 0
KPD2 171537Z 24001KT 05/M03 A302 RMK A01 T00541027  RH  056%=      5-min Rain = 0
KPD2 171538Z 24002KT 05/M03 A3019 RMK A01 T00541026  RH  056%=      5-min Rain = 0
KPD2 171539Z 04001KT 05/M02 A3019 RMK A01 T00541024  RH  057%=      5-min Rain = 0
KPD2 171540Z 01002KT 06/M02 A3019 RMK A01 T00561022  RH  057%=      5-min Rain = 0
KPD2 171541Z 01003KT 06/M02 A3019 RMK A01 T00581022  RH  057%=      5-min Rain = 0
KPD2 171542Z 01003KT 06/M02 A3019 RMK A01 T00591023  RH  056%=      5-min Rain = 0
KPD2 171543Z 34002KT 06/M02 A3019 RMK A01 T00601022  RH  056%=      5-min Rain = 0
KPD2 171544Z 31001KT 06/M02 A302 RMK A01 T00601023  RH  055%=      5-min Rain = 0
KPD2 171545Z 27001KT 06/M02 A302 RMK A01 T00611023  RH  055%=      5-min Rain = 0
KPD2 171546Z 23002KT 06/M02 A302 RMK A01 T00611023  RH  055%=      5-min Rain = 0
KPD2 171547Z 24002KT 06/M02 A302 RMK A01 T00621022  RH  055%=      5-min Rain = 0
KPD2 171548Z 23002KT 06/M02 A302 RMK A01 T00631023  RH  054%=      5-min Rain = 0
KPD2 171549Z 23002KT 06/M02 A302 RMK A01 T00641024  RH  053%=      5-min Rain = 0
KPD2 171550Z 24001KT 07/M02 A302 RMK A01 T00651023  RH  053%=      5-min Rain = 0
KPD2 171551Z 24000KT 07/M02 A302 RMK A01 T00661023  RH  053%=      5-min Rain = 0
KPD2 171552Z 27001KT 07/M02 A302 RMK A01 T00671024  RH  052%=      5-min Rain = 0
KPD2 171553Z 26001KT 07/M02 A302 RMK A01 T00671024  RH  052%=      5-min Rain = 0
KPD2 171554Z 26002KT 07/M03 A302 RMK A01 T00671025  RH  052%=      5-min Rain = 0
KPD2 171555Z 27001KT 07/M03 A302 RMK A01 T00671025  RH  052%=      5-min Rain = 0
KPD2 171556Z 30001KT 07/M02 A302 RMK A01 T00671024  RH  052%=      5-min Rain = 0
KPD2 171557Z 32002KT 07/M02 A302 RMK A01 T00681024  RH  052%=      5-min Rain = 0
KPD2 171558Z 34001KT 07/M02 A302 RMK A01 T00681023  RH  052%=      5-min Rain = 0
KPD2 171559Z 32002KT 07/M02 A302 RMK A01 T00691023  RH  052%=      5-min Rain = 0
KPD2 171600Z 32001KT 07/M02 A302 RMK A01 T00711022  RH  052%=      5-min Rain = 0
KPD2 171601Z 31001KT 07/M02 A302 RMK A01 T00711024  RH  051%=      5-min Rain = 0
KPD2 171602Z 27001KT 07/M02 A302 RMK A01 T00721022  RH  051%=      5-min Rain = 0
KPD2 171603Z 24002KT 07/M02 A302 RMK A01 T00731022  RH  051%=      5-min Rain = 0
KPD2 171604Z 23001KT 07/M02 A3021 RMK A01 T00741022  RH  051%=      5-min Rain = 0
KPD2 171605Z 00000KT 07/M02 A3021 RMK A01 T00741022  RH  050%=      5-min Rain = 0
KPD2 171606Z 10001KT 08/M02 A3021 RMK A01 T00761022  RH  050%=      5-min Rain = 0
KPD2 171607Z 10001KT 08/M02 A3021 RMK A01 T00771022  RH  050%=      5-min Rain = 0
KPD2 171608Z 08001KT 08/M02 A3021 RMK A01 T00781022  RH  049%=      5-min Rain = 0
KPD2 171609Z 36001KT 08/M02 A3021 RMK A01 T00801020  RH  049%=      5-min Rain = 0
KPD2 171610Z 34002KT 08/M02 A3021 RMK A01 T00811020  RH  049%=      5-min Rain = 0
KPD2 171611Z 35002KT 08/M02 A3021 RMK A01 T00821021  RH  048%=      5-min Rain = 0
KPD2 171612Z 01004KT 08/M02 A3021 RMK A01 T00831018  RH  049%=      5-min Rain = 0
KPD2 171613Z 01005KT 09/M02 A3021 RMK A01 T00851016  RH  049%=      5-min Rain = 0
KPD2 171614Z 02005KT 09/M02 A3021 RMK A01 T00861016  RH  049%=      5-min Rain = 0
KPD2 171615Z 02005KT 09/M02 A302 RMK A01 T00861017  RH  048%=      5-min Rain = 0
KPD2 171616Z 01004KT 09/M02 A302 RMK A01 T00861018  RH  048%=      5-min Rain = 0
KPD2 171617Z 01004KT 09/M02 A302 RMK A01 T00861017  RH  048%=      5-min Rain = 0
KPD2 171618Z 36005KT 09/M01 A302 RMK A01 T00891013  RH  049%=      5-min Rain = 0
KPD2 171619Z 34004KT 09/M02 A302 RMK A01 T00911015  RH  048%=      5-min Rain = 0
KPD2 171620Z 34005KT 09/M02 A302 RMK A01 T00911017  RH  047%=      5-min Rain = 0
KPD2 171621Z 33003KT 09/M02 A302 RMK A01 T00921017  RH  047%=      5-min Rain = 0
KPD2 171622Z 32003KT 09/M01 A302 RMK A01 T00941014  RH  047%=      5-min Rain = 0
KPD2 171623Z 33003KT 10/M01 A302 RMK A01 T00971013  RH  046%=      5-min Rain = 0
KPD2 171624Z 33003KT 10/M01 A302 RMK A01 T00991013  RH  045%=      5-min Rain = 0
KPD2 171625Z 32002KT 10/M01 A302 RMK A01 T01011013  RH  045%=      5-min Rain = 0
KPD2 171626Z 25002KT 10/M01 A302 RMK A01 T01031013  RH  045%=      5-min Rain = 0
KPD2 171627Z 27002KT 10/M01 A302 RMK A01 T01031014  RH  044%=      5-min Rain = 0
KPD2 171628Z 27004KT 10/M01 A302 RMK A01 T01041014  RH  044%=      5-min Rain = 0
KPD2 171629Z 25003KT 10/M02 A302 RMK A01 T01041015  RH  044%=      5-min Rain = 0
KPD2 171630Z 23003KT 10/M02 A302 RMK A01 T01031015  RH  044%=      5-min Rain = 0
KPD2 171631Z 24003KT 10/M01 A3021 RMK A01 T01031014  RH  044%=      5-min Rain = 0
KPD2 171632Z 25004KT 10/M01 A3021 RMK A01 T01041014  RH  044%=      5-min Rain = 0
KPD2 171633Z 23002KT 10/M01 A3021 RMK A01 T01041014  RH  044%=      5-min Rain = 0
KPD2 171634Z 22002KT 10/M02 A3021 RMK A01 T01041015  RH  044%=      5-min Rain = 0
KPD2 171635Z 20002KT 10/M01 A3021 RMK A01 T01041014  RH  044%=      5-min Rain = 0
KPD2 171636Z 20003KT 10/M02 A3021 RMK A01 T01041015  RH  043%=      5-min Rain = 0
KPD2 171637Z 21002KT 10/M01 A3021 RMK A01 T01041014  RH  044%=      5-min Rain = 0
KPD2 171638Z 21002KT 10/M01 A3021 RMK A01 T01041014  RH  044%=      5-min Rain = 0
KPD2 171639Z 21001KT 11/M01 A3021 RMK A01 T01051012  RH  044%=      5-min Rain = 0
KPD2 171640Z 20002KT 11/M01 A3021 RMK A01 T01071014  RH  043%=      5-min Rain = 0
KPD2 171641Z 21002KT 11/M01 A3021 RMK A01 T01091014  RH  043%=      5-min Rain = 0
KPD2 171642Z 24002KT 11/M01 A3021 RMK A01 T01101013  RH  042%=      5-min Rain = 0
KPD2 171643Z 24001KT 11/M01 A3021 RMK A01 T01121010  RH  043%=      5-min Rain = 0
KPD2 171644Z 24001KT 11/M01 A3021 RMK A01 T01131012  RH  042%=      5-min Rain = 0
KPD2 171645Z 22001KT 11/M01 A3021 RMK A01 T01141011  RH  042%=      5-min Rain = 0
KPD2 171646Z 21002KT 12/M01 A3021 RMK A01 T01161011  RH  042%=      5-min Rain = 0
KPD2 171647Z 20000KT 12/M01 A302 RMK A01 T01161013  RH  041%=      5-min Rain = 0
KPD2 171648Z 25001KT 12/M01 A302 RMK A01 T01161013  RH  041%=      5-min Rain = 0
KPD2 171649Z 28001KT 12/M01 A302 RMK A01 T01161014  RH  040%=      5-min Rain = 0
KPD2 171650Z 28001KT 12/M01 A302 RMK A01 T01151014  RH  041%=      5-min Rain = 0
KPD2 171651Z 33000KT 11/M01 A302 RMK A01 T01141014  RH  041%=      5-min Rain = 0
KPD2 171652Z 35000KT 11/M01 A302 RMK A01 T01141014  RH  041%=      5-min Rain = 0
KPD2 171653Z 05000KT 11/M01 A302 RMK A01 T01141013  RH  041%=      5-min Rain = 0
KPD2 171654Z 06001KT 12/M01 A302 RMK A01 T01171012  RH  041%=      5-min Rain = 0
KPD2 171655Z 07001KT 12/M01 A302 RMK A01 T01181012  RH  040%=      5-min Rain = 0
KPD2 171656Z 09000KT 12/M01 A302 RMK A01 T01181013  RH  040%=      5-min Rain = 0
KPD2 171657Z 29000KT 12/M01 A302 RMK A01 T01191012  RH  040%=      5-min Rain = 0
KPD2 171658Z 31002KT 12/M01 A302 RMK A01 T01201011  RH  040%=      5-min Rain = 0
KPD2 171659Z 30002KT 12/M01 A302 RMK A01 T01221011  RH  040%=      5-min Rain = 0
KPD2 171700Z 30004KT 12/M01 A302 RMK A01 T01221013  RH  039%=      5-min Rain = 0
KPD2 171701Z 32003KT 12/M01 A302 RMK A01 T01221013  RH  039%=      5-min Rain = 0
KPD2 171702Z 29003KT 12/M01 A302 RMK A01 T01231011  RH  040%=      5-min Rain = 0
KPD2 171703Z 27003KT 12/M01 A302 RMK A01 T01241011  RH  039%=      5-min Rain = 0
KPD2 171704Z 28003KT 12/M01 A302 RMK A01 T01241012  RH  039%=      5-min Rain = 0
KPD2 171705Z 31004KT 12/M01 A302 RMK A01 T01241011  RH  039%=      5-min Rain = 0
KPD2 171706Z 33004KT 12/M01 A302 RMK A01 T01241012  RH  039%=      5-min Rain = 0
KPD2 171707Z 01002KT 12/M01 A302 RMK A01 T01241011  RH  039%=      5-min Rain = 0
KPD2 171708Z 03000KT 13/M01 A302 RMK A01 T01251010  RH  039%=      5-min Rain = 0
KPD2 171709Z 23001KT 13/M01 A302 RMK A01 T01271010  RH  039%=      5-min Rain = 0
KPD2 171710Z 19003KT 13/M01 A3019 RMK A01 T01291010  RH  038%=      5-min Rain = 0
KPD2 171711Z 25004KT 13/M01 A3019 RMK A01 T01301009  RH  038%=      5-min Rain = 0
KPD2 171712Z 26002KT 13/M01 A3019 RMK A01 T01321008  RH  038%=      5-min Rain = 0
KPD2 171713Z 26002KT 13/M01 A3019 RMK A01 T01341007  RH  038%=      5-min Rain = 0
KPD2 171714Z 23003KT 13/M01 A3019 RMK A01 T01341009  RH  037%=      5-min Rain = 0
KPD2 171715Z 26003KT 13/M01 A3019 RMK A01 T01341009  RH  037%=      5-min Rain = 0
KPD2 171716Z 26002KT 13/M01 A3019 RMK A01 T01331010  RH  037%=      5-min Rain = 0
KPD2 171717Z 25001KT 13/M01 A3019 RMK A01 T01331010  RH  037%=      5-min Rain = 0
KPD2 171718Z 20001KT 13/M01 A3019 RMK A01 T01331011  RH  037%=      5-min Rain = 0
KPD2 171719Z 20002KT 13/M01 A3019 RMK A01 T01331011  RH  037%=      5-min Rain = 0
KPD2 171720Z 20002KT 14/M01 A3019 RMK A01 T01351010  RH  037%=      5-min Rain = 0
KPD2 171721Z 22001KT 14/M01 A3019 RMK A01 T01351010  RH  037%=      5-min Rain = 0
KPD2 171722Z 31002KT 14/M01 A3019 RMK A01 T01371006  RH  037%=      5-min Rain = 0
KPD2 171723Z 33002KT 14/M01 A3019 RMK A01 T01401007  RH  036%=      5-min Rain = 0
KPD2 171724Z 31001KT 14/M01 A3019 RMK A01 T01401008  RH  036%=      5-min Rain = 0
KPD2 171725Z 27002KT 14/M01 A3019 RMK A01 T01401008  RH  036%=      5-min Rain = 0
KPD2 171726Z 22001KT 14/M01 A3019 RMK A01 T01401008  RH  036%=      5-min Rain = 0
KPD2 171727Z 28001KT 14/M01 A3019 RMK A01 T01421007  RH  036%=      5-min Rain = 0
KPD2 171728Z 26001KT 14/M01 A3019 RMK A01 T01431008  RH  036%=      5-min Rain = 0
KPD2 171729Z 24002KT 14/M01 A3019 RMK A01 T01431007  RH  036%=      5-min Rain = 0
KPD2 171730Z 23002KT 15/M01 A3019 RMK A01 T01451007  RH  035%=      5-min Rain = 0
KPD2 171731Z 25001KT 14/M01 A3019 RMK A01 T01441009  RH  035%=      5-min Rain = 0
KPD2 171732Z 26002KT 14/M01 A3019 RMK A01 T01431008  RH  035%=      5-min Rain = 0
KPD2 171733Z 19002KT 14/M01 A3019 RMK A01 T01431008  RH  035%=      5-min Rain = 0
KPD2 171734Z 20002KT 14/M01 A3019 RMK A01 T01431008  RH  035%=      5-min Rain = 0
KPD2 171735Z 20001KT 15/M01 A3019 RMK A01 T01451005  RH  036%=      5-min Rain = 0
KPD2 171736Z 26002KT 15/M00 A3019 RMK A01 T01471004  RH  035%=      5-min Rain = 0
KPD2 171737Z 27003KT 15/M01 A3019 RMK A01 T01481006  RH  035%=      5-min Rain = 0
KPD2 171738Z 26002KT 15/M01 A3019 RMK A01 T01481007  RH  034%=      5-min Rain = 0
KPD2 171739Z 25002KT 15/M01 A3019 RMK A01 T01481008  RH  034%=      5-min Rain = 0
KPD2 171740Z 25000KT 15/M01 A3019 RMK A01 T01471007  RH  035%=      5-min Rain = 0
KPD2 171741Z 02000KT 15/M01 A3019 RMK A01 T01491006  RH  035%=      5-min Rain = 0
KPD2 171742Z 27001KT 15/M01 A3019 RMK A01 T01511006  RH  034%=      5-min Rain = 0
KPD2 171743Z 29001KT 15/M01 A3019 RMK A01 T01511008  RH  034%=      5-min Rain = 0
KPD2 171744Z 22002KT 15/M01 A3019 RMK A01 T01511008  RH  034%=      5-min Rain = 0
KPD2 171745Z 21002KT 15/M01 A3019 RMK A01 T01501008  RH  034%=      5-min Rain = 0
KPD2 171746Z 20002KT 15/M01 A3019 RMK A01 T01511007  RH  034%=      5-min Rain = 0
KPD2 171747Z 24003KT 15/M01 A3019 RMK A01 T01511009  RH  033%=      5-min Rain = 0
KPD2 171748Z 28002KT 15/M01 A3019 RMK A01 T01491008  RH  034%=      5-min Rain = 0
KPD2 171749Z 28002KT 15/M01 A3019 RMK A01 T01491009  RH  034%=      5-min Rain = 0
KPD2 171750Z 25002KT 15/M01 A3019 RMK A01 T01481008  RH  034%=      5-min Rain = 0
KPD2 171751Z 24001KT 15/M01 A3019 RMK A01 T01501007  RH  034%=      5-min Rain = 0
KPD2 171752Z 20001KT 15/M01 A3019 RMK A01 T01531006  RH  034%=      5-min Rain = 0
KPD2 171753Z 19002KT 15/M01 A3019 RMK A01 T01541009  RH  033%=      5-min Rain = 0
KPD2 171754Z 19001KT 15/M01 A3019 RMK A01 T01541010  RH  033%=      5-min Rain = 0
KPD2 171755Z 15001KT 16/M01 A3019 RMK A01 T01551011  RH  032%=      5-min Rain = 0
KPD2 171756Z 14000KT 16/M01 A3019 RMK A01 T01561013  RH  031%=      5-min Rain = 0
KPD2 171757Z 00000KT 16/M01 A3019 RMK A01 T01571012  RH  031%=      5-min Rain = 0
KPD2 171758Z 12001KT 16/M01 A3019 RMK A01 T01571014  RH  031%=      5-min Rain = 0
KPD2 171759Z 12002KT 16/M01 A3019 RMK A01 T01571012  RH  031%=      5-min Rain = 0
KPD2 171800Z 08003KT 16/M01 A3019 RMK A01 T01581010  RH  032%=      5-min Rain = 0
KPD2 171801Z 07002KT 16/M01 A3018 RMK A01 T01581009  RH  032%=      5-min Rain = 0
KPD2 171802Z 10002KT 16/M01 A3018 RMK A01 T01591010  RH  031%=      5-min Rain = 0
KPD2 171803Z 14002KT 16/M01 A3018 RMK A01 T01571012  RH  031%=      5-min Rain = 0
KPD2 171804Z 13004KT 16/M01 A3018 RMK A01 T01571010  RH  032%=      5-min Rain = 0
KPD2 171805Z 12002KT 16/M01 A3018 RMK A01 T01581009  RH  032%=      5-min Rain = 0
KPD2 171806Z 13003KT 16/M01 A3018 RMK A01 T01601008  RH  032%=      5-min Rain = 0
KPD2 171807Z 11006KT 16/M01 A3018 RMK A01 T01621007  RH  032%=      5-min Rain = 0
KPD2 171808Z 11003KT 16/M01 A3018 RMK A01 T01631007  RH  031%=      5-min Rain = 0
KPD2 171809Z 11003KT 17/M00 A3018 RMK A01 T01651004  RH  032%=      5-min Rain = 0
KPD2 171810Z 15004KT 17/M01 A3018 RMK A01 T01671007  RH  031%=      5-min Rain = 0
KPD2 171811Z 17003KT 17/M01 A3018 RMK A01 T01661008  RH  031%=      5-min Rain = 0
KPD2 171812Z 15004KT 16/M01 A3018 RMK A01 T01641007  RH  031%=      5-min Rain = 0
KPD2 171813Z 14004KT 16/M01 A3018 RMK A01 T01641006  RH  031%=      5-min Rain = 0
KPD2 171814Z 18004KT 17/M01 A3018 RMK A01 T01651005  RH  031%=      5-min Rain = 0
KPD2 171815Z 20005KT 17/M01 A3018 RMK A01 T01661005  RH  031%=      5-min Rain = 0
KPD2 171816Z 21003KT 17/M01 A3018 RMK A01 T01661007  RH  031%=      5-min Rain = 0
KPD2 171817Z 17004KT 17/M00 A3018 RMK A01 T01661004  RH  031%=      5-min Rain = 0
KPD2 171818Z 16006KT 17/M01 A3018 RMK A01 T01671005  RH  031%=      5-min Rain = 0
KPD2 171819Z 17005KT 17/M01 A3018 RMK A01 T01671007  RH  031%=      5-min Rain = 0
KPD2 171820Z 14004KT 17/M01 A3018 RMK A01 T01651009  RH  031%=      5-min Rain = 0
KPD2 171821Z 14003KT 16/M01 A3018 RMK A01 T01631008  RH  031%=      5-min Rain = 0
KPD2 171822Z 18003KT 16/M01 A3018 RMK A01 T01631006  RH  031%=      5-min Rain = 0
KPD2 171823Z 19004KT 16/M01 A3018 RMK A01 T01641007  RH  031%=      5-min Rain = 0
KPD2 171824Z 16005KT 16/M01 A3018 RMK A01 T01641007  RH  031%=      5-min Rain = 0
KPD2 171825Z 15004KT 16/M01 A3018 RMK A01 T01641008  RH  031%=      5-min Rain = 0
KPD2 171826Z 19003KT 16/M01 A3018 RMK A01 T01641007  RH  031%=      5-min Rain = 0
KPD2 171827Z 18005KT 17/M01 A3018 RMK A01 T01651007  RH  031%=      5-min Rain = 0
KPD2 171828Z 15006KT 17/M01 A3018 RMK A01 T01661008  RH  030%=      5-min Rain = 0
KPD2 171829Z 15007KT 17/M01 A3018 RMK A01 T01651009  RH  030%=      5-min Rain = 0
KPD2 171830Z 13006KT 17/M01 A3018 RMK A01 T01651009  RH  031%=      5-min Rain = 0
KPD2 171831Z 13007KT 17/M01 A3018 RMK A01 T01661007  RH  031%=      5-min Rain = 0
KPD2 171832Z 14006KT 17/M01 A3018 RMK A01 T01681009  RH  030%=      5-min Rain = 0
KPD2 171833Z 14006KT 17/M01 A3017 RMK A01 T01671010  RH  030%=      5-min Rain = 0
KPD2 171834Z 13006KT 17/M01 A3017 RMK A01 T01651011  RH  030%=      5-min Rain = 0
KPD2 171835Z 15007KT 17/M01 A3017 RMK A01 T01651009  RH  031%=      5-min Rain = 0
KPD2 171836Z 15006KT 17/M01 A3017 RMK A01 T01661010  RH  030%=      5-min Rain = 0
KPD2 171837Z 14006KT 17/M01 A3017 RMK A01 T01671008  RH  030%=      5-min Rain = 0
KPD2 171838Z 14004KT 17/M01 A3017 RMK A01 T01691008  RH  030%=      5-min Rain = 0
KPD2 171839Z 15005KT 17/M01 A3017 RMK A01 T01691011  RH  029%=      5-min Rain = 0
KPD2 171840Z 15004KT 17/M01 A3017 RMK A01 T01681009  RH  030%=      5-min Rain = 0
KPD2 171841Z 14003KT 17/M01 A3016 RMK A01 T01671009  RH  030%=      5-min Rain = 0
KPD2 171842Z 13002KT 17/M01 A3016 RMK A01 T01671009  RH  030%=      5-min Rain = 0
KPD2 171843Z 15003KT 17/M01 A3016 RMK A01 T01681008  RH  030%=      5-min Rain = 0
KPD2 171844Z 15004KT 17/M01 A3016 RMK A01 T01711007  RH  030%=      5-min Rain = 0
KPD2 171845Z 15004KT 17/M01 A3016 RMK A01 T01731007  RH  029%=      5-min Rain = 0
KPD2 171846Z 14005KT 17/M01 A3016 RMK A01 T01731009  RH  029%=      5-min Rain = 0
KPD2 171847Z 15007KT 17/M01 A3016 RMK A01 T01731009  RH  029%=      5-min Rain = 0
KPD2 171848Z 14007KT 17/M01 A3016 RMK A01 T01721008  RH  029%=      5-min Rain = 0
KPD2 171849Z 16007KT 17/M01 A3016 RMK A01 T01721009  RH  029%=      5-min Rain = 0
KPD2 171850Z 15007KT 17/M01 A3016 RMK A01 T01711008  RH  029%=      5-min Rain = 0
KPD2 171851Z 15006KT 17/M01 A3016 RMK A01 T01711008  RH  030%=      5-min Rain = 0
KPD2 171852Z 16005KT 17/M01 A3016 RMK A01 T01701009  RH  030%=      5-min Rain = 0
KPD2 171853Z 14007KT 17/M01 A3015 RMK A01 T01701009  RH  030%=      5-min Rain = 0
KPD2 171854Z 13006KT 17/M01 A3015 RMK A01 T01711008  RH  030%=      5-min Rain = 0
KPD2 171855Z 13004KT 17/M01 A3015 RMK A01 T01721006  RH  030%=      5-min Rain = 0
KPD2 171856Z 12003KT 17/M01 A3015 RMK A01 T01731007  RH  029%=      5-min Rain = 0
KPD2 171857Z 11003KT 17/M01 A3015 RMK A01 T01741007  RH  029%=      5-min Rain = 0
KPD2 171858Z 11006KT 18/M00 A3015 RMK A01 T01771004  RH  029%=      5-min Rain = 0
KPD2 171859Z 12005KT 18/M01 A3015 RMK A01 T01781005  RH  029%=      5-min Rain = 0
KPD2 171900Z 13004KT 18/M01 A3015 RMK A01 T01781007  RH  028%=      5-min Rain = 0
KPD2 171901Z 13003KT 18/M01 A3014 RMK A01 T01771007  RH  029%=      5-min Rain = 0
KPD2 171902Z 17005KT 18/M01 A3014 RMK A01 T01761005  RH  029%=      5-min Rain = 0
KPD2 171903Z 18007KT 18/M01 A3014 RMK A01 T01771005  RH  029%=      5-min Rain = 0
KPD2 171904Z 19006KT 18/M01 A3014 RMK A01 T01751007  RH  029%=      5-min Rain = 0
KPD2 171905Z 16006KT 17/M01 A3014 RMK A01 T01731007  RH  029%=      5-min Rain = 0
KPD2 171906Z 14004KT 17/M01 A3014 RMK A01 T01721006  RH  030%=      5-min Rain = 0
KPD2 171907Z 16005KT 17/M01 A3014 RMK A01 T01741006  RH  029%=      5-min Rain = 0
KPD2 171908Z 15004KT 18/M01 A3014 RMK A01 T01761006  RH  029%=      5-min Rain = 0
KPD2 171909Z 16002KT 18/M01 A3013 RMK A01 T01771006  RH  029%=      5-min Rain = 0
KPD2 171910Z 19003KT 18/M01 A3013 RMK A01 T01781008  RH  028%=      5-min Rain = 0
KPD2 171911Z 22006KT 18/M01 A3013 RMK A01 T01791007  RH  028%=      5-min Rain = 0
KPD2 171912Z 19005KT 18/M01 A3013 RMK A01 T01811006  RH  028%=      5-min Rain = 0
KPD2 171913Z 14003KT 18/M01 A3013 RMK A01 T01821005  RH  028%=      5-min Rain = 0
KPD2 171914Z 12002KT 18/M01 A3013 RMK A01 T01811007  RH  028%=      5-min Rain = 0
KPD2 171915Z 15002KT 18/M01 A3013 RMK A01 T01801006  RH  028%=      5-min Rain = 0
KPD2 171916Z 19005KT 18/M01 A3013 RMK A01 T01821005  RH  028%=      5-min Rain = 0
KPD2 171917Z 17006KT 18/M01 A3013 RMK A01 T01821009  RH  027%=      5-min Rain = 0
KPD2 171918Z 14005KT 18/M01 A3013 RMK A01 T01801010  RH  028%=      5-min Rain = 0
KPD2 171919Z 13007KT 18/M01 A3013 RMK A01 T01801009  RH  028%=      5-min Rain = 0
KPD2 171920Z 15007KT 18/M01 A3013 RMK A01 T01831010  RH  027%=      5-min Rain = 0
KPD2 171921Z 14005KT 18/M01 A3013 RMK A01 T01821012  RH  027%=      5-min Rain = 0
KPD2 171922Z 18005KT 18/M01 A3013 RMK A01 T01801012  RH  027%=      5-min Rain = 0
KPD2 171923Z 18006G11KT 18/M01 A3012 RMK A01 T01801013  RH  027%=      5-min Rain = 0
KPD2 171924Z 16006G11KT 18/M01 A3012 RMK A01 T01791012  RH  027%=      5-min Rain = 0
KPD2 171925Z 17005KT 18/M01 A3012 RMK A01 T01781012  RH  027%=      5-min Rain = 0
KPD2 171926Z 19004KT 18/M01 A3012 RMK A01 T01771014  RH  027%=      5-min Rain = 0
KPD2 171927Z 13004KT 18/M01 A3012 RMK A01 T01771011  RH  028%=      5-min Rain = 0
KPD2 171928Z 15005KT 18/M01 A3012 RMK A01 T01791009  RH  028%=      5-min Rain = 0
KPD2 171929Z 13006KT 18/M01 A3012 RMK A01 T01801007  RH  028%=      5-min Rain = 0
KPD2 171930Z 12008KT 18/M01 A3012 RMK A01 T01821006  RH  028%=      5-min Rain = 0
KPD2 171931Z 12008KT 19/M01 A3012 RMK A01 T01851006  RH  028%=      5-min Rain = 0
KPD2 171932Z 13005KT 19/M01 A3012 RMK A01 T01871006  RH  027%=      5-min Rain = 0
KPD2 171933Z 14003KT 19/M01 A3012 RMK A01 T01881009  RH  026%=      5-min Rain = 0
KPD2 171934Z 19006KT 19/M01 A3012 RMK A01 T01891010  RH  026%=      5-min Rain = 0
KPD2 171935Z 20005KT 19/M01 A3011 RMK A01 T01881014  RH  025%=      5-min Rain = 0
KPD2 171936Z 20003KT 19/M02 A3011 RMK A01 T01871017  RH  025%=      5-min Rain = 0
KPD2 171937Z 19003KT 19/M02 A3011 RMK A01 T01861017  RH  025%=      5-min Rain = 0
KPD2 171938Z 15006KT 19/M02 A3011 RMK A01 T01851017  RH  025%=      5-min Rain = 0
KPD2 171939Z 14007KT 19/M02 A3011 RMK A01 T01861017  RH  025%=      5-min Rain = 0
KPD2 171940Z 15008KT 19/M02 A3011 RMK A01 T01881020  RH  024%=      5-min Rain = 0
KPD2 171941Z 14005KT 19/M02 A3011 RMK A01 T01851023  RH  024%=      5-min Rain = 0
KPD2 171942Z 13004KT 18/M02 A3011 RMK A01 T01841022  RH  025%=      5-min Rain = 0
KPD2 171943Z 14008KT 18/M02 A3011 RMK A01 T01831022  RH  025%=      5-min Rain = 0
KPD2 171944Z 15007KT 18/M02 A3011 RMK A01 T01841022  RH  025%=      5-min Rain = 0
KPD2 171945Z 16004KT 18/M02 A3011 RMK A01 T01841022  RH  025%=      5-min Rain = 0
KPD2 171946Z 15002KT 18/M02 A301 RMK A01 T01841022  RH  025%=      5-min Rain = 0
KPD2 171947Z 13003KT 19/M02 A301 RMK A01 T01851020  RH  025%=      5-min Rain = 0
KPD2 171948Z 13006KT 19/M02 A301 RMK A01 T01871019  RH  025%=      5-min Rain = 0
KPD2 171949Z 15007KT 19/M02 A301 RMK A01 T01881020  RH  024%=      5-min Rain = 0
KPD2 171950Z 15007KT 19/M02 A301 RMK A01 T01881019  RH  025%=      5-min Rain = 0
KPD2 171951Z 16008KT 19/M02 A301 RMK A01 T01871019  RH  025%=      5-min Rain = 0
KPD2 171952Z 16007KT 19/M02 A301 RMK A01 T01861019  RH  025%=      5-min Rain = 0
KPD2 171953Z 17006KT 19/M02 A301 RMK A01 T01861018  RH  025%=      5-min Rain = 0
KPD2 171954Z 14005KT 19/M02 A3009 RMK A01 T01861017  RH  025%=      5-min Rain = 0
KPD2 171955Z 14008KT 19/M02 A3009 RMK A01 T01881017  RH  025%=      5-min Rain = 0
KPD2 171956Z 17007KT 19/M02 A3009 RMK A01 T01891018  RH  025%=      5-min Rain = 0
KPD2 171957Z 17008KT 19/M02 A3009 RMK A01 T01901017  RH  025%=      5-min Rain = 0
KPD2 171958Z 16005KT 19/M02 A3009 RMK A01 T01891018  RH  024%=      5-min Rain = 0
KPD2 171959Z 14006KT 19/M02 A3009 RMK A01 T01881019  RH  025%=      5-min Rain = 0
KPD2 172000Z 14007KT 19/M02 A3009 RMK A01 T01871020  RH  025%=      5-min Rain = 0
KPD2 172001Z 13007KT 19/M02 A3009 RMK A01 T01871021  RH  024%=      5-min Rain = 0
KPD2 172002Z 14008KT 19/M02 A3009 RMK A01 T01881018  RH  025%=      5-min Rain = 0
KPD2 172003Z 14008G13KT 19/M02 A3009 RMK A01 T01901019  RH  024%=      5-min Rain = 0
KPD2 172004Z 16005KT 19/M02 A3009 RMK A01 T01891019  RH  024%=      5-min Rain = 0
KPD2 172005Z 15005KT 19/M02 A3009 RMK A01 T01901020  RH  024%=      5-min Rain = 0
KPD2 172006Z 15005KT 19/M02 A3009 RMK A01 T01891020  RH  024%=      5-min Rain = 0
KPD2 172007Z 18003KT 19/M02 A3008 RMK A01 T01901020  RH  024%=      5-min Rain = 0
KPD2 172008Z 14006KT 19/M02 A3008 RMK A01 T01901019  RH  024%=      5-min Rain = 0
KPD2 172009Z 13004KT 19/M02 A3008 RMK A01 T01911018  RH  024%=      5-min Rain = 0
KPD2 172010Z 13008KT 19/M02 A3008 RMK A01 T01911018  RH  024%=      5-min Rain = 0
KPD2 172011Z 13011KT 19/M02 A3008 RMK A01 T01931018  RH  024%=      5-min Rain = 0
KPD2 172012Z 13008KT 19/M02 A3008 RMK A01 T01931021  RH  023%=      5-min Rain = 0
KPD2 172013Z 16005KT 19/M02 A3008 RMK A01 T01921021  RH  024%=      5-min Rain = 0
KPD2 172014Z 13003KT 19/M02 A3008 RMK A01 T01911020  RH  024%=      5-min Rain = 0
KPD2 172015Z 16005G13KT 19/M02 A3008 RMK A01 T01921016  RH  024%=      5-min Rain = 0
KPD2 172016Z 16008KT 19/M02 A3008 RMK A01 T01941017  RH  024%=      5-min Rain = 0
KPD2 172017Z 16005KT 19/M02 A3008 RMK A01 T01931018  RH  024%=      5-min Rain = 0
KPD2 172018Z 16008KT 19/M02 A3008 RMK A01 T01921017  RH  024%=      5-min Rain = 0
KPD2 172019Z 15007KT 19/M02 A3008 RMK A01 T01921018  RH  024%=      5-min Rain = 0
KPD2 172020Z 16007KT 19/M02 A3008 RMK A01 T01921019  RH  024%=      5-min Rain = 0
KPD2 172021Z 18007KT 19/M02 A3008 RMK A01 T01941016  RH  024%=      5-min Rain = 0
KPD2 172022Z 17005KT 20/M02 A3008 RMK A01 T01951018  RH  024%=      5-min Rain = 0
KPD2 172023Z 15007KT 19/M02 A3008 RMK A01 T01931019  RH  024%=      5-min Rain = 0
KPD2 172024Z 15007KT 19/M02 A3008 RMK A01 T01911021  RH  024%=      5-min Rain = 0
KPD2 172025Z 15007KT 19/M02 A3008 RMK A01 T01911018  RH  024%=      5-min Rain = 0
KPD2 172026Z 15009KT 19/M02 A3008 RMK A01 T01931017  RH  024%=      5-min Rain = 0
KPD2 172027Z 15006KT 19/M02 A3008 RMK A01 T01941018  RH  024%=      5-min Rain = 0
KPD2 172028Z 15008KT 20/M02 A3008 RMK A01 T01961017  RH  024%=      5-min Rain = 0
KPD2 172029Z 16007KT 20/M02 A3008 RMK A01 T01961019  RH  023%=      5-min Rain = 0
KPD2 172030Z 19008KT 20/M02 A3008 RMK A01 T01961020  RH  023%=      5-min Rain = 0
KPD2 172031Z 17009KT 20/M02 A3008 RMK A01 T01951019  RH  023%=      5-min Rain = 0
KPD2 172032Z 16008KT 20/M02 A3008 RMK A01 T01951020  RH  023%=      5-min Rain = 0
KPD2 172033Z 16007KT 20/M02 A3008 RMK A01 T01951022  RH  023%=      5-min Rain = 0
KPD2 172034Z 20005KT 20/M02 A3008 RMK A01 T01961023  RH  023%=      5-min Rain = 0
KPD2 172035Z 22004KT 20/M02 A3008 RMK A01 T01961024  RH  023%=      5-min Rain = 0
KPD2 172036Z 24004KT 20/M02 A3007 RMK A01 T01961024  RH  022%=      5-min Rain = 0
KPD2 172037Z 21006KT 20/M02 A3007 RMK A01 T01971024  RH  022%=      5-min Rain = 0
KPD2 172038Z 19008KT 20/M03 A3007 RMK A01 T01961025  RH  022%=      5-min Rain = 0
KPD2 172039Z 17007KT 19/M03 A3007 RMK A01 T01941026  RH  022%=      5-min Rain = 0
KPD2 172040Z 18006KT 19/M03 A3007 RMK A01 T01921025  RH  023%=      5-min Rain = 0
KPD2 172041Z 18004KT 19/M03 A3007 RMK A01 T01941025  RH  023%=      5-min Rain = 0
KPD2 172042Z 18004KT 20/M03 A3007 RMK A01 T01951026  RH  022%=      5-min Rain = 0
KPD2 172043Z 17002KT 20/M03 A3007 RMK A01 T01961027  RH  022%=      5-min Rain = 0
KPD2 172044Z 16001KT 20/M03 A3007 RMK A01 T01961028  RH  022%=      5-min Rain = 0
KPD2 172045Z 21002KT 20/M03 A3007 RMK A01 T01971029  RH  022%=      5-min Rain = 0
KPD2 172046Z 23004KT 20/M03 A3007 RMK A01 T01971027  RH  022%=      5-min Rain = 0
KPD2 172047Z 20006KT 20/M03 A3007 RMK A01 T01991027  RH  022%=      5-min Rain = 0
KPD2 172048Z 20011KT 20/M03 A3007 RMK A01 T01991028  RH  021%=      5-min Rain = 0
KPD2 172049Z 20009KT 20/M03 A3007 RMK A01 T01991031  RH  021%=      5-min Rain = 0
KPD2 172050Z 19006KT 20/M03 A3007 RMK A01 T01971031  RH  021%=      5-min Rain = 0
KPD2 172051Z 18006KT 20/M03 A3007 RMK A01 T01971031  RH  021%=      5-min Rain = 0
KPD2 172052Z 18004KT 20/M03 A3007 RMK A01 T01951034  RH  021%=      5-min Rain = 0
KPD2 172053Z 20003KT 19/M03 A3007 RMK A01 T01931031  RH  022%=      5-min Rain = 0
KPD2 172054Z 18002KT 19/M03 A3007 RMK A01 T01941031  RH  022%=      5-min Rain = 0
KPD2 172055Z 18002KT 20/M03 A3007 RMK A01 T01961031  RH  021%=      5-min Rain = 0
KPD2 172056Z 17004KT 20/M03 A3007 RMK A01 T01961032  RH  021%=      5-min Rain = 0
KPD2 172057Z 18003KT 20/M03 A3007 RMK A01 T01951033  RH  021%=      5-min Rain = 0
KPD2 172058Z 17003KT 19/M03 A3007 RMK A01 T01941033  RH  021%=      5-min Rain = 0
KPD2 172059Z 11002KT 19/M03 A3006 RMK A01 T01941032  RH  021%=      5-min Rain = 0
KPD2 172100Z 17003KT 20/M03 A3006 RMK A01 T01961030  RH  022%=      5-min Rain = 0
KPD2 172101Z 17005KT 20/M03 A3006 RMK A01 T01981028  RH  022%=      5-min Rain = 0
KPD2 172102Z 18005KT 20/M03 A3006 RMK A01 T01991029  RH  021%=      5-min Rain = 0
KPD2 172103Z 21005KT 20/M03 A3006 RMK A01 T01981031  RH  021%=      5-min Rain = 0
KPD2 172104Z 18005KT 20/M03 A3006 RMK A01 T01971030  RH  021%=      5-min Rain = 0
KPD2 172105Z 18005KT 20/M03 A3006 RMK A01 T01971028  RH  022%=      5-min Rain = 0
KPD2 172106Z 20006KT 20/M03 A3006 RMK A01 T01991028  RH  021%=      5-min Rain = 0
KPD2 172107Z 22004KT 20/M03 A3006 RMK A01 T01991028  RH  021%=      5-min Rain = 0
KPD2 172108Z 21002KT 20/M03 A3006 RMK A01 T02001028  RH  021%=      5-min Rain = 0
KPD2 172109Z 22003KT 20/M03 A3006 RMK A01 T02011029  RH  021%=      5-min Rain = 0
KPD2 172110Z 18004KT 20/M03 A3006 RMK A01 T02021027  RH  021%=      5-min Rain = 0
KPD2 172111Z 19005KT 20/M03 A3006 RMK A01 T02031027  RH  021%=      5-min Rain = 0
KPD2 172112Z 21004KT 20/M03 A3006 RMK A01 T02021028  RH  021%=      5-min Rain = 0
KPD2 172113Z 16005KT 20/M03 A3006 RMK A01 T02011027  RH  021%=      5-min Rain = 0
KPD2 172114Z 16005KT 20/M03 A3006 RMK A01 T02021027  RH  021%=      5-min Rain = 0
KPD2 172115Z 21005KT 20/M03 A3006 RMK A01 T02021027  RH  021%=      5-min Rain = 0
KPD2 172116Z 20008KT 20/M03 A3006 RMK A01 T02031026  RH  021%=      5-min Rain = 0
KPD2 172117Z 17007KT 20/M03 A3006 RMK A01 T02031030  RH  021%=      5-min Rain = 0
KPD2 172118Z 16005KT 20/M03 A3006 RMK A01 T02011031  RH  021%=      5-min Rain = 0
KPD2 172119Z 18003KT 20/M03 A3006 RMK A01 T02001030  RH  021%=      5-min Rain = 0
KPD2 172120Z 24001KT 20/M03 A3006 RMK A01 T02001029  RH  021%=      5-min Rain = 0
KPD2 172121Z 25002KT 20/M03 A3006 RMK A01 T02021028  RH  021%=      5-min Rain = 0
KPD2 172122Z 20004KT 20/M03 A3006 RMK A01 T02041028  RH  021%=      5-min Rain = 0
KPD2 172123Z 20004KT 21/M03 A3006 RMK A01 T02051028  RH  021%=      5-min Rain = 0
KPD2 172124Z 18006KT 21/M03 A3006 RMK A01 T02051028  RH  021%=      5-min Rain = 0
KPD2 172125Z 17007KT 20/M03 A3006 RMK A01 T02041028  RH  021%=      5-min Rain = 0
KPD2 172126Z 19006KT 20/M03 A3006 RMK A01 T02031028  RH  021%=      5-min Rain = 0
KPD2 172127Z 18004KT 20/M03 A3006 RMK A01 T02021028  RH  021%=      5-min Rain = 0
KPD2 172128Z 15005KT 20/M03 A3006 RMK A01 T02011028  RH  021%=      5-min Rain = 0
KPD2 172129Z 18005KT 20/M03 A3006 RMK A01 T02011029  RH  021%=      5-min Rain = 0
KPD2 172130Z 21003KT 20/M03 A3005 RMK A01 T02001030  RH  021%=      5-min Rain = 0
KPD2 172131Z 18005KT 20/M03 A3005 RMK A01 T02001029  RH  021%=      5-min Rain = 0
KPD2 172132Z 19005KT 20/M03 A3005 RMK A01 T02011031  RH  021%=      5-min Rain = 0
KPD2 172133Z 19005KT 20/M03 A3005 RMK A01 T02011032  RH  021%=      5-min Rain = 0
KPD2 172134Z 19004KT 20/M03 A3005 RMK A01 T02011033  RH  020%=      5-min Rain = 0
KPD2 172135Z 19007KT 20/M03 A3005 RMK A01 T02001034  RH  020%=      5-min Rain = 0
KPD2 172136Z 19006KT 20/M03 A3005 RMK A01 T02001034  RH  020%=      5-min Rain = 0
KPD2 172137Z 21005KT 20/M03 A3005 RMK A01 T01991033  RH  021%=      5-min Rain = 0
KPD2 172138Z 22004KT 20/M03 A3005 RMK A01 T01991031  RH  021%=      5-min Rain = 0
KPD2 172139Z 20002KT 20/M03 A3005 RMK A01 T02011031  RH  021%=      5-min Rain = 0
KPD2 172140Z 18004KT 20/M03 A3005 RMK A01 T02021030  RH  021%=      5-min Rain = 0
KPD2 172141Z 18003KT 20/M03 A3005 RMK A01 T02021031  RH  021%=      5-min Rain = 0
KPD2 172142Z 17004KT 20/M03 A3005 RMK A01 T02021030  RH  021%=      5-min Rain = 0
KPD2 172143Z 17006KT 20/M03 A3005 RMK A01 T02031029  RH  021%=      5-min Rain = 0
KPD2 172144Z 17007KT 20/M03 A3005 RMK A01 T02031029  RH  021%=      5-min Rain = 0
KPD2 172145Z 20006KT 20/M03 A3005 RMK A01 T02011030  RH  021%=      5-min Rain = 0
KPD2 172146Z 17005KT 20/M03 A3005 RMK A01 T02011029  RH  021%=      5-min Rain = 0
KPD2 172147Z 16006KT 20/M03 A3005 RMK A01 T02021028  RH  021%=      5-min Rain = 0
KPD2 172148Z 18008KT 20/M03 A3005 RMK A01 T02031029  RH  021%=      5-min Rain = 0
KPD2 172149Z 17009KT 20/M03 A3005 RMK A01 T02041032  RH  020%=      5-min Rain = 0
KPD2 172150Z 16008KT 20/M03 A3005 RMK A01 T02021033  RH  020%=      5-min Rain = 0
KPD2 172151Z 16006KT 20/M03 A3005 RMK A01 T02011033  RH  020%=      5-min Rain = 0
KPD2 172152Z 16007KT 20/M03 A3005 RMK A01 T02001034  RH  020%=      5-min Rain = 0
KPD2 172153Z 15007KT 20/M03 A3005 RMK A01 T02001032  RH  021%=      5-min Rain = 0
KPD2 172154Z 15006KT 20/M03 A3005 RMK A01 T02001034  RH  020%=      5-min Rain = 0
KPD2 172155Z 17003KT 20/M03 A3005 RMK A01 T01991033  RH  021%=      5-min Rain = 0
KPD2 172156Z 20007KT 20/M03 A3005 RMK A01 T01991032  RH  021%=      5-min Rain = 0
KPD2 172157Z 21007KT 20/M03 A3005 RMK A01 T02001031  RH  021%=      5-min Rain = 0
KPD2 172158Z 20005KT 20/M03 A3004 RMK A01 T02001032  RH  021%=      5-min Rain = 0
KPD2 172159Z 18005KT 20/M03 A3004 RMK A01 T02001030  RH  021%=      5-min Rain = 0
KPD2 172200Z 16005KT 20/M03 A3004 RMK A01 T02001032  RH  021%=      5-min Rain = 0
KPD2 172201Z 17004KT 20/M03 A3004 RMK A01 T02001031  RH  021%=      5-min Rain = 0
KPD2 172202Z 18004KT 20/M03 A3004 RMK A01 T02001030  RH  021%=      5-min Rain = 0
KPD2 172203Z 19005KT 20/M03 A3004 RMK A01 T02001032  RH  021%=      5-min Rain = 0
KPD2 172204Z 17004KT 20/M03 A3004 RMK A01 T02001032  RH  021%=      5-min Rain = 0
KPD2 172205Z 19005KT 20/M03 A3005 RMK A01 T01991031  RH  021%=      5-min Rain = 0
KPD2 172206Z 21006KT 20/M03 A3005 RMK A01 T02011030  RH  021%=      5-min Rain = 0
KPD2 172207Z 19006KT 20/M03 A3005 RMK A01 T02021030  RH  021%=      5-min Rain = 0
KPD2 172208Z 19007KT 20/M03 A3005 RMK A01 T02021031  RH  021%=      5-min Rain = 0
KPD2 172209Z 18005KT 20/M03 A3005 RMK A01 T02021032  RH  020%=      5-min Rain = 0
KPD2 172210Z 16005G10KT 20/M03 A3005 RMK A01 T02021031  RH  021%=      5-min Rain = 0
KPD2 172211Z 17006KT 20/M03 A3005 RMK A01 T02011030  RH  021%=      5-min Rain = 0
KPD2 172212Z 18005KT 20/M03 A3005 RMK A01 T02011031  RH  021%=      5-min Rain = 0
KPD2 172213Z 21005KT 20/M03 A3005 RMK A01 T02011032  RH  021%=      5-min Rain = 0
KPD2 172214Z 17005KT 20/M03 A3005 RMK A01 T02001031  RH  021%=      5-min Rain = 0
KPD2 172215Z 17005KT 20/M03 A3005 RMK A01 T02001032  RH  021%=      5-min Rain = 0
KPD2 172216Z 17004KT 20/M03 A3005 RMK A01 T02001031  RH  021%=      5-min Rain = 0
KPD2 172217Z 19003KT 20/M03 A3005 RMK A01 T02001032  RH  021%=      5-min Rain = 0
KPD2 172218Z 18003KT 20/M03 A3005 RMK A01 T01991032  RH  021%=      5-min Rain = 0
KPD2 172219Z 16007KT 20/M03 A3005 RMK A01 T02001031  RH  021%=      5-min Rain = 0
KPD2 172220Z 16007KT 20/M03 A3005 RMK A01 T02001031  RH  021%=      5-min Rain = 0
KPD2 172221Z 16009KT 20/M03 A3005 RMK A01 T02001031  RH  021%=      5-min Rain = 0
KPD2 172222Z 16007KT 20/M03 A3005 RMK A01 T02001031  RH  021%=      5-min Rain = 0
KPD2 172223Z 16006KT 20/M03 A3005 RMK A01 T01991031  RH  021%=      5-min Rain = 0
KPD2 172224Z 17005KT 20/M03 A3004 RMK A01 T01991030  RH  021%=      5-min Rain = 0
KPD2 172225Z 14005KT 20/M03 A3004 RMK A01 T02001030  RH  021%=      5-min Rain = 0
KPD2 172226Z 19007KT 20/M03 A3004 RMK A01 T02011029  RH  021%=      5-min Rain = 0
KPD2 172227Z 19006KT 20/M03 A3004 RMK A01 T02011031  RH  021%=      5-min Rain = 0
KPD2 172228Z 20004KT 20/M03 A3004 RMK A01 T02001031  RH  021%=      5-min Rain = 0
KPD2 172229Z 19004KT 20/M03 A3004 RMK A01 T02001030  RH  021%=      5-min Rain = 0
KPD2 172230Z 17004KT 20/M03 A3004 RMK A01 T02001030  RH  021%=      5-min Rain = 0
KPD2 172231Z 16005KT 20/M03 A3004 RMK A01 T02011029  RH  021%=      5-min Rain = 0
KPD2 172232Z 17006KT 20/M03 A3004 RMK A01 T02011030  RH  021%=      5-min Rain = 0
KPD2 172233Z 15006KT 20/M03 A3004 RMK A01 T02011031  RH  021%=      5-min Rain = 0
KPD2 172234Z 16007KT 20/M03 A3004 RMK A01 T02001030  RH  021%=      5-min Rain = 0
KPD2 172235Z 16008KT 20/M03 A3004 RMK A01 T02001031  RH  021%=      5-min Rain = 0
KPD2 172236Z 16006KT 20/M03 A3004 RMK A01 T01991031  RH  021%=      5-min Rain = 0
KPD2 172237Z 15006KT 20/M03 A3004 RMK A01 T01981031  RH  021%=      5-min Rain = 0
KPD2 172238Z 15007KT 20/M03 A3004 RMK A01 T01981030  RH  021%=      5-min Rain = 0
KPD2 172239Z 15006KT 20/M03 A3004 RMK A01 T01981031  RH  021%=      5-min Rain = 0
KPD2 172240Z 15006KT 20/M03 A3004 RMK A01 T01981031  RH  021%=      5-min Rain = 0
KPD2 172241Z 18005KT 20/M03 A3004 RMK A01 T01981031  RH  021%=      5-min Rain = 0
KPD2 172242Z 15006KT 20/M03 A3004 RMK A01 T01981030  RH  021%=      5-min Rain = 0
KPD2 172243Z 13006KT 20/M03 A3004 RMK A01 T01991030  RH  021%=      5-min Rain = 0
KPD2 172244Z 15006KT 20/M03 A3004 RMK A01 T01991031  RH  021%=      5-min Rain = 0
KPD2 172245Z 14007KT 20/M03 A3004 RMK A01 T01991031  RH  021%=      5-min Rain = 0
KPD2 172246Z 14008KT 20/M03 A3004 RMK A01 T01991031  RH  021%=      5-min Rain = 0
KPD2 172247Z 14007KT 20/M03 A3004 RMK A01 T01981033  RH  021%=      5-min Rain = 0
KPD2 172248Z 12008KT 20/M03 A3004 RMK A01 T01981033  RH  021%=      5-min Rain = 0
KPD2 172249Z 18007KT 20/M03 A3004 RMK A01 T01971032  RH  021%=      5-min Rain = 0
KPD2 172250Z 17004KT 20/M03 A3004 RMK A01 T01971032  RH  021%=      5-min Rain = 0
KPD2 172251Z 19004KT 20/M03 A3004 RMK A01 T01961032  RH  021%=      5-min Rain = 0
KPD2 172252Z 19003KT 20/M03 A3004 RMK A01 T01961033  RH  021%=      5-min Rain = 0
KPD2 172253Z 14004KT 20/M03 A3004 RMK A01 T01961033  RH  021%=      5-min Rain = 0
KPD2 172254Z 15006KT 20/M03 A3004 RMK A01 T01961033  RH  021%=      5-min Rain = 0
KPD2 172255Z 18007KT 20/M03 A3004 RMK A01 T01961031  RH  021%=      5-min Rain = 0
KPD2 172256Z 14009KT 20/M03 A3004 RMK A01 T01961032  RH  021%=      5-min Rain = 0
KPD2 172257Z 17006KT 20/M03 A3004 RMK A01 T01961033  RH  021%=      5-min Rain = 0
KPD2 172258Z 14005KT 20/M03 A3004 RMK A01 T01961033  RH  021%=      5-min Rain = 0
KPD2 172259Z 13005KT 20/M03 A3003 RMK A01 T01951032  RH  021%=      5-min Rain = 0
KPD2 172300Z 15007KT 20/M03 A3003 RMK A01 T01951033  RH  021%=      5-min Rain = 0
KPD2 172301Z 15007KT 20/M03 A3003 RMK A01 T01951032  RH  021%=      5-min Rain = 0
KPD2 172302Z 14008KT 19/M03 A3004 RMK A01 T01941032  RH  021%=      5-min Rain = 0
KPD2 172303Z 16005KT 19/M03 A3004 RMK A01 T01931034  RH  021%=      5-min Rain = 0
KPD2 172304Z 19006KT 19/M03 A3004 RMK A01 T01931033  RH  021%=      5-min Rain = 0
KPD2 172305Z 16004KT 19/M03 A3003 RMK A01 T01921033  RH  022%=      5-min Rain = 0
KPD2 172306Z 15006KT 19/M03 A3003 RMK A01 T01921032  RH  022%=      5-min Rain = 0
KPD2 172307Z 16005KT 19/M03 A3003 RMK A01 T01921033  RH  021%=      5-min Rain = 0
KPD2 172308Z 16006KT 19/M03 A3003 RMK A01 T01921033  RH  022%=      5-min Rain = 0
KPD2 172309Z 16007KT 19/M03 A3003 RMK A01 T01921034  RH  021%=      5-min Rain = 0
KPD2 172310Z 15006KT 19/M03 A3003 RMK A01 T01931034  RH  021%=      5-min Rain = 0
KPD2 172311Z 20004KT 19/M03 A3003 RMK A01 T01921033  RH  022%=      5-min Rain = 0
KPD2 172312Z 18003KT 19/M03 A3003 RMK A01 T01921034  RH  021%=      5-min Rain = 0
KPD2 172313Z 16005KT 19/M03 A3003 RMK A01 T01931033  RH  022%=      5-min Rain = 0
KPD2 172314Z 17004KT 19/M03 A3003 RMK A01 T01921033  RH  022%=      5-min Rain = 0
KPD2 172315Z 16004KT 19/M03 A3003 RMK A01 T01921033  RH  022%=      5-min Rain = 0
KPD2 172316Z 16002KT 19/M03 A3003 RMK A01 T01921032  RH  022%=      5-min Rain = 0
KPD2 172317Z 16002KT 19/M03 A3003 RMK A01 T01931032  RH  022%=      5-min Rain = 0
KPD2 172318Z 15005KT 19/M03 A3003 RMK A01 T01931031  RH  022%=      5-min Rain = 0
KPD2 172319Z 15007KT 19/M03 A3003 RMK A01 T01921031  RH  022%=      5-min Rain = 0
KPD2 172320Z 16006KT 19/M03 A3003 RMK A01 T01911033  RH  022%=      5-min Rain = 0
KPD2 172321Z 19005KT 19/M03 A3003 RMK A01 T01901033  RH  022%=      5-min Rain = 0
KPD2 172322Z 16004KT 19/M03 A3003 RMK A01 T01901033  RH  022%=      5-min Rain = 0
KPD2 172323Z 15004KT 19/M03 A3003 RMK A01 T01901032  RH  022%=      5-min Rain = 0
KPD2 172324Z 12005KT 19/M03 A3003 RMK A01 T01891032  RH  022%=      5-min Rain = 0
KPD2 172325Z 13004KT 19/M03 A3003 RMK A01 T01871033  RH  022%=      5-min Rain = 0
KPD2 172326Z 14006KT 19/M03 A3003 RMK A01 T01861033  RH  022%=      5-min Rain = 0
KPD2 172327Z 16005KT 19/M03 A3003 RMK A01 T01851032  RH  023%=      5-min Rain = 0
KPD2 172328Z 14005KT 18/M03 A3003 RMK A01 T01831033  RH  023%=      5-min Rain = 0
KPD2 172329Z 13005KT 18/M03 A3003 RMK A01 T01831033  RH  023%=      5-min Rain = 0
KPD2 172330Z 14007KT 18/M03 A3003 RMK A01 T01831033  RH  023%=      5-min Rain = 0
KPD2 172331Z 17006KT 18/M03 A3003 RMK A01 T01831032  RH  023%=      5-min Rain = 0
KPD2 172332Z 14005KT 18/M03 A3003 RMK A01 T01831032  RH  023%=      5-min Rain = 0
KPD2 172333Z 14005KT 18/M03 A3003 RMK A01 T01831032  RH  023%=      5-min Rain = 0
KPD2 172334Z 13007KT 18/M03 A3003 RMK A01 T01821032  RH  023%=      5-min Rain = 0
KPD2 172335Z 12006KT 18/M03 A3003 RMK A01 T01811032  RH  023%=      5-min Rain = 0
KPD2 172336Z 13004KT 18/M03 A3003 RMK A01 T01811032  RH  023%=      5-min Rain = 0
KPD2 172337Z 15006KT 18/M03 A3003 RMK A01 T01801032  RH  023%=      5-min Rain = 0
KPD2 172338Z 13004KT 18/M03 A3003 RMK A01 T01801031  RH  024%=      5-min Rain = 0
KPD2 172339Z 14004KT 18/M03 A3003 RMK A01 T01781031  RH  024%=      5-min Rain = 0
KPD2 172340Z 13005KT 18/M03 A3003 RMK A01 T01781031  RH  024%=      5-min Rain = 0
KPD2 172341Z 15006KT 18/M03 A3003 RMK A01 T01771031  RH  024%=      5-min Rain = 0
KPD2 172342Z 16004KT 18/M03 A3003 RMK A01 T01761031  RH  024%=      5-min Rain = 0
KPD2 172343Z 14007KT 18/M03 A3003 RMK A01 T01761031  RH  024%=      5-min Rain = 0
KPD2 172344Z 15004KT 18/M03 A3003 RMK A01 T01771031  RH  024%=      5-min Rain = 0
KPD2 172345Z 16003KT 18/M03 A3003 RMK A01 T01781031  RH  024%=      5-min Rain = 0
KPD2 172346Z 14003KT 18/M03 A3003 RMK A01 T01791031  RH  024%=      5-min Rain = 0
KPD2 172347Z 13004KT 18/M03 A3003 RMK A01 T01781030  RH  024%=      5-min Rain = 0
KPD2 172348Z 13005KT 18/M03 A3003 RMK A01 T01771030  RH  024%=      5-min Rain = 0
KPD2 172349Z 15004KT 18/M03 A3003 RMK A01 T01761030  RH  024%=      5-min Rain = 0
KPD2 172350Z 15006KT 18/M03 A3003 RMK A01 T01761031  RH  024%=      5-min Rain = 0
KPD2 172351Z 13005KT 18/M03 A3003 RMK A01 T01751030  RH  024%=      5-min Rain = 0
KPD2 172352Z 13006KT 18/M03 A3003 RMK A01 T01751030  RH  025%=      5-min Rain = 0
KPD2 172353Z 12006KT 17/M03 A3003 RMK A01 T01731030  RH  025%=      5-min Rain = 0
KPD2 172354Z 13007KT 17/M03 A3003 RMK A01 T01731030  RH  025%=      5-min Rain = 0
KPD2 172355Z 14006KT 17/M03 A3003 RMK A01 T01721030  RH  025%=      5-min Rain = 0
KPD2 172356Z 16006KT 17/M03 A3003 RMK A01 T01731030  RH  025%=      5-min Rain = 0
KPD2 172357Z 14006KT 17/M03 A3003 RMK A01 T01741030  RH  025%=      5-min Rain = 0
KPD2 172358Z 12006KT 17/M03 A3003 RMK A01 T01741030  RH  025%=      5-min Rain = 0
KPD2 172359Z 13006KT 17/M03 A3003 RMK A01 T01741030  RH  025%=      5-min Rain = 0
KPD2 180000Z 13005KT 17/M03 A3003 RMK A01 T01741030  RH  025%=      5-min Rain = 0
KPD2 180001Z 14006KT 17/M03 A3003 RMK A01 T01741031  RH  025%=      5-min Rain = 0
KPD2 180002Z 15006KT 17/M03 A3003 RMK A01 T01731031  RH  025%=      5-min Rain = 0
KPD2 180003Z 15005KT 17/M03 A3003 RMK A01 T01731030  RH  025%=      5-min Rain = 0
KPD2 180004Z 13004KT 17/M03 A3003 RMK A01 T01711030  RH  025%=      5-min Rain = 0
KPD2 180005Z 14005KT 17/M03 A3003 RMK A01 T01691030  RH  025%=      5-min Rain = 0
KPD2 180006Z 13007KT 17/M03 A3003 RMK A01 T01691030  RH  026%=      5-min Rain = 0
KPD2 180007Z 13006KT 17/M03 A3003 RMK A01 T01691030  RH  026%=      5-min Rain = 0
KPD2 180008Z 12005KT 17/M03 A3003 RMK A01 T01681030  RH  026%=      5-min Rain = 0
KPD2 180009Z 13006KT 17/M03 A3003 RMK A01 T01671030  RH  026%=      5-min Rain = 0
KPD2 180010Z 12007KT 17/M03 A3003 RMK A01 T01661030  RH  026%=      5-min Rain = 0
KPD2 180011Z 14007KT 16/M03 A3003 RMK A01 T01641030  RH  026%=      5-min Rain = 0
KPD2 180012Z 14007KT 16/M03 A3003 RMK A01 T01641030  RH  026%=      5-min Rain = 0
KPD2 180013Z 13006KT 16/M03 A3003 RMK A01 T01631030  RH  026%=      5-min Rain = 0
KPD2 180014Z 13006KT 16/M03 A3003 RMK A01 T01611030  RH  027%=      5-min Rain = 0
KPD2 180015Z 14006KT 16/M03 A3003 RMK A01 T01601030  RH  027%=      5-min Rain = 0
KPD2 180016Z 13005KT 16/M03 A3003 RMK A01 T01591030  RH  027%=      5-min Rain = 0
KPD2 180017Z 13005KT 16/M03 A3003 RMK A01 T01581030  RH  027%=      5-min Rain = 0
KPD2 180018Z 12005KT 16/M03 A3003 RMK A01 T01561029  RH  028%=      5-min Rain = 0
KPD2 180019Z 13006KT 16/M03 A3003 RMK A01 T01551029  RH  028%=      5-min Rain = 0
KPD2 180020Z 13006KT 15/M03 A3003 RMK A01 T01541029  RH  028%=      5-min Rain = 0
KPD2 180021Z 12007KT 15/M03 A3003 RMK A01 T01541029  RH  028%=      5-min Rain = 0
KPD2 180022Z 13006KT 15/M03 A3003 RMK A01 T01531029  RH  028%=      5-min Rain = 0
KPD2 180023Z 13006KT 15/M03 A3003 RMK A01 T01521029  RH  029%=      5-min Rain = 0
KPD2 180024Z 13006KT 15/M03 A3003 RMK A01 T01521028  RH  029%=      5-min Rain = 0
KPD2 180025Z 13006KT 15/M03 A3003 RMK A01 T01521029  RH  029%=      5-min Rain = 0
KPD2 180026Z 13006KT 15/M03 A3003 RMK A01 T01521028  RH  029%=      5-min Rain = 0
KPD2 180027Z 12007KT 15/M03 A3003 RMK A01 T01521028  RH  029%=      5-min Rain = 0
KPD2 180028Z 12006KT 15/M03 A3003 RMK A01 T01511028  RH  029%=      5-min Rain = 0
KPD2 180029Z 12007KT 15/M03 A3003 RMK A01 T01511028  RH  029%=      5-min Rain = 0
KPD2 180030Z 12007KT 15/M03 A3003 RMK A01 T01511028  RH  029%=      5-min Rain = 0
KPD2 180031Z 12007KT 15/M03 A3003 RMK A01 T01511028  RH  029%=      5-min Rain = 0
KPD2 180032Z 12007KT 15/M03 A3003 RMK A01 T01511028  RH  029%=      5-min Rain = 0
KPD2 180033Z 13007KT 15/M03 A3003 RMK A01 T01511028  RH  029%=      5-min Rain = 0
KPD2 180034Z 12006KT 15/M03 A3003 RMK A01 T01511028  RH  029%=      5-min Rain = 0
KPD2 180035Z 13007KT 15/M03 A3003 RMK A01 T01511028  RH  029%=      5-min Rain = 0
KPD2 180036Z 13007KT 15/M03 A3003 RMK A01 T01511028  RH  029%=      5-min Rain = 0
KPD2 180037Z 12007KT 15/M03 A3003 RMK A01 T01511027  RH  029%=      5-min Rain = 0
KPD2 180038Z 12007KT 15/M03 A3003 RMK A01 T01501027  RH  029%=      5-min Rain = 0
KPD2 180039Z 12006KT 15/M03 A3003 RMK A01 T01501027  RH  029%=      5-min Rain = 0
KPD2 180040Z 12007KT 15/M03 A3003 RMK A01 T01491027  RH  029%=      5-min Rain = 0
KPD2 180041Z 13007KT 15/M03 A3003 RMK A01 T01491027  RH  029%=      5-min Rain = 0
KPD2 180042Z 13007KT 15/M03 A3003 RMK A01 T01491028  RH  030%=      5-min Rain = 0
KPD2 180043Z 13007KT 15/M03 A3003 RMK A01 T01481028  RH  030%=      5-min Rain = 0
KPD2 180044Z 13008KT 15/M03 A3003 RMK A01 T01481028  RH  030%=      5-min Rain = 0
KPD2 180045Z 13007KT 15/M03 A3003 RMK A01 T01481027  RH  030%=      5-min Rain = 0
KPD2 180046Z 13007KT 15/M03 A3003 RMK A01 T01481027  RH  030%=      5-min Rain = 0
KPD2 180047Z 12007KT 15/M03 A3003 RMK A01 T01481028  RH  030%=      5-min Rain = 0
KPD2 180048Z 12007KT 15/M03 A3003 RMK A01 T01471028  RH  030%=      5-min Rain = 0
KPD2 180049Z 12007KT 15/M03 A3003 RMK A01 T01461028  RH  030%=      5-min Rain = 0
KPD2 180050Z 12007KT 15/M03 A3003 RMK A01 T01461028  RH  030%=      5-min Rain = 0
KPD2 180051Z 12007KT 15/M03 A3003 RMK A01 T01461028  RH  030%=      5-min Rain = 0
KPD2 180052Z 12007KT 15/M03 A3003 RMK A01 T01461028  RH  030%=      5-min Rain = 0
KPD2 180053Z 12007KT 15/M03 A3003 RMK A01 T01461028  RH  030%=      5-min Rain = 0
KPD2 180054Z 13007KT 15/M03 A3003 RMK A01 T01461028  RH  030%=      5-min Rain = 0
KPD2 180055Z 13006KT 15/M03 A3003 RMK A01 T01461028  RH  030%=      5-min Rain = 0
KPD2 180056Z 13007KT 15/M03 A3003 RMK A01 T01461028  RH  030%=      5-min Rain = 0
KPD2 180057Z 13006KT 15/M03 A3003 RMK A01 T01461028  RH  030%=      5-min Rain = 0
KPD2 180058Z 13006KT 15/M03 A3003 RMK A01 T01461028  RH  030%=      5-min Rain = 0
KPD2 180059Z 13007KT 15/M03 A3003 RMK A01 T01461028  RH  030%=      5-min Rain = 0
KPD2 180100Z 13006KT 15/M03 A3003 RMK A01 T01461028  RH  030%=      5-min Rain = 0
KPD2 180101Z 13006KT 15/M03 A3003 RMK A01 T01451028  RH  030%=      5-min Rain = 0
KPD2 180102Z 13005KT 15/M03 A3003 RMK A01 T01451028  RH  030%=      5-min Rain = 0
KPD2 180103Z 13006KT 14/M03 A3003 RMK A01 T01441028  RH  030%=      5-min Rain = 0
KPD2 180104Z 13006KT 14/M03 A3003 RMK A01 T01441028  RH  030%=      5-min Rain = 0
KPD2 180105Z 12006KT 14/M03 A3003 RMK A01 T01431028  RH  030%=      5-min Rain = 0
KPD2 180106Z 12006KT 14/M03 A3003 RMK A01 T01431028  RH  031%=      5-min Rain = 0
KPD2 180107Z 12006KT 14/M03 A3003 RMK A01 T01421028  RH  031%=      5-min Rain = 0
KPD2 180108Z 12005KT 14/M03 A3003 RMK A01 T01411028  RH  031%=      5-min Rain = 0
KPD2 180109Z 13006KT 14/M03 A3003 RMK A01 T01411029  RH  031%=      5-min Rain = 0
KPD2 180110Z 13006KT 14/M03 A3003 RMK A01 T01401029  RH  031%=      5-min Rain = 0
KPD2 180111Z 13006KT 14/M03 A3003 RMK A01 T01391029  RH  031%=      5-min Rain = 0
KPD2 180112Z 13006KT 14/M03 A3003 RMK A01 T01391029  RH  031%=      5-min Rain = 0
KPD2 180113Z 13005KT 14/M03 A3003 RMK A01 T01381029  RH  031%=      5-min Rain = 0
KPD2 180114Z 13007KT 14/M03 A3003 RMK A01 T01381029  RH  031%=      5-min Rain = 0
KPD2 180115Z 13006KT 14/M03 A3003 RMK A01 T01381030  RH  031%=      5-min Rain = 0
KPD2 180116Z 13006KT 14/M03 A3003 RMK A01 T01371030  RH  031%=      5-min Rain = 0
KPD2 180117Z 12006KT 14/M03 A3003 RMK A01 T01371030  RH  031%=      5-min Rain = 0
KPD2 180118Z 12006KT 14/M03 A3003 RMK A01 T01361030  RH  032%=      5-min Rain = 0
KPD2 180119Z 12006KT 14/M03 A3003 RMK A01 T01351030  RH  032%=      5-min Rain = 0
KPD2 180120Z 12007KT 14/M03 A3003 RMK A01 T01351030  RH  032%=      5-min Rain = 0
KPD2 180121Z 13007KT 14/M03 A3003 RMK A01 T01351031  RH  032%=      5-min Rain = 0
KPD2 180122Z 12006KT 13/M03 A3002 RMK A01 T01341031  RH  032%=      5-min Rain = 0
KPD2 180123Z 12006KT 13/M03 A3002 RMK A01 T01341031  RH  032%=      5-min Rain = 0
KPD2 180124Z 12006KT 13/M03 A3002 RMK A01 T01331031  RH  032%=      5-min Rain = 0
KPD2 180125Z 13006KT 13/M03 A3002 RMK A01 T01331031  RH  032%=      5-min Rain = 0
KPD2 180126Z 13007KT 13/M03 A3002 RMK A01 T01331032  RH  032%=      5-min Rain = 0
KPD2 180127Z 13006KT 13/M03 A3002 RMK A01 T01331031  RH  032%=      5-min Rain = 0
KPD2 180128Z 13006KT 13/M03 A3003 RMK A01 T01331031  RH  032%=      5-min Rain = 0
KPD2 180129Z 13006KT 13/M03 A3002 RMK A01 T01321031  RH  032%=      5-min Rain = 0
KPD2 180130Z 14006KT 13/M03 A3003 RMK A01 T01321031  RH  032%=      5-min Rain = 0
KPD2 180131Z 13006KT 13/M03 A3003 RMK A01 T01311031  RH  032%=      5-min Rain = 0
KPD2 180132Z 13007KT 13/M03 A3003 RMK A01 T01301032  RH  032%=      5-min Rain = 0
KPD2 180133Z 12006KT 13/M03 A3003 RMK A01 T01301031  RH  032%=      5-min Rain = 0
KPD2 180134Z 12006KT 13/M03 A3003 RMK A01 T01291032  RH  032%=      5-min Rain = 0
KPD2 180135Z 13007KT 13/M03 A3003 RMK A01 T01291032  RH  032%=      5-min Rain = 0
KPD2 180136Z 12007KT 13/M03 A3003 RMK A01 T01301032  RH  032%=      5-min Rain = 0
KPD2 180137Z 12007KT 13/M03 A3003 RMK A01 T01301033  RH  032%=      5-min Rain = 0
KPD2 180138Z 12008KT 13/M03 A3003 RMK A01 T01311033  RH  032%=      5-min Rain = 0
KPD2 180139Z 12008KT 13/M03 A3003 RMK A01 T01321033  RH  032%=      5-min Rain = 0
KPD2 180140Z 12007KT 13/M03 A3003 RMK A01 T01321033  RH  032%=      5-min Rain = 0
KPD2 180141Z 12008KT 13/M03 A3003 RMK A01 T01321033  RH  032%=      5-min Rain = 0
KPD2 180142Z 13007KT 13/M03 A3003 RMK A01 T01321033  RH  032%=      5-min Rain = 0
KPD2 180143Z 13007KT 13/M03 A3003 RMK A01 T01321033  RH  032%=      5-min Rain = 0
KPD2 180144Z 12007KT 13/M03 A3003 RMK A01 T01311033  RH  032%=      5-min Rain = 0
KPD2 180145Z 13007KT 13/M03 A3003 RMK A01 T01301033  RH  032%=      5-min Rain = 0
KPD2 180146Z 12008KT 13/M03 A3002 RMK A01 T01301033  RH  032%=      5-min Rain = 0
KPD2 180147Z 12008KT 13/M03 A3002 RMK A01 T01301033  RH  032%=      5-min Rain = 0
KPD2 180148Z 12008KT 13/M03 A3003 RMK A01 T01311033  RH  032%=      5-min Rain = 0
KPD2 180149Z 13007KT 13/M03 A3003 RMK A01 T01311033  RH  032%=      5-min Rain = 0
KPD2 180150Z 12007KT 13/M03 A3003 RMK A01 T01311033  RH  032%=      5-min Rain = 0
KPD2 180151Z 12007KT 13/M03 A3002 RMK A01 T01311033  RH  032%=      5-min Rain = 0
KPD2 180152Z 13007KT 13/M03 A3002 RMK A01 T01301033  RH  032%=      5-min Rain = 0
KPD2 180153Z 13007KT 13/M03 A3002 RMK A01 T01301033  RH  032%=      5-min Rain = 0
KPD2 180154Z 12007KT 13/M03 A3002 RMK A01 T01301033  RH  032%=      5-min Rain = 0
KPD2 180155Z 12007KT 13/M03 A3002 RMK A01 T01291033  RH  032%=      5-min Rain = 0
KPD2 180156Z 13007KT 13/M03 A3002 RMK A01 T01291033  RH  032%=      5-min Rain = 0
KPD2 180157Z 12007KT 13/M03 A3002 RMK A01 T01291033  RH  032%=      5-min Rain = 0
KPD2 180158Z 12007KT 13/M03 A3002 RMK A01 T01291033  RH  032%=      5-min Rain = 0
KPD2 180159Z 13007KT 13/M03 A3002 RMK A01 T01281033  RH  032%=      5-min Rain = 0
KPD2 180200Z 13007KT 13/M03 A3002 RMK A01 T01281033  RH  033%=      5-min Rain = 0
KPD2 180201Z 13007KT 13/M03 A3002 RMK A01 T01271033  RH  033%=      5-min Rain = 0
KPD2 180202Z 13008KT 13/M03 A3002 RMK A01 T01261033  RH  033%=      5-min Rain = 0
KPD2 180203Z 13007KT 13/M03 A3002 RMK A01 T01251032  RH  033%=      5-min Rain = 0
KPD2 180204Z 13007KT 13/M03 A3002 RMK A01 T01251032  RH  033%=      5-min Rain = 0
KPD2 180205Z 13006KT 12/M03 A3002 RMK A01 T01241032  RH  033%=      5-min Rain = 0
KPD2 180206Z 13007KT 12/M03 A3002 RMK A01 T01231033  RH  033%=      5-min Rain = 0
KPD2 180207Z 13006KT 12/M03 A3002 RMK A01 T01221033  RH  034%=      5-min Rain = 0
KPD2 180208Z 13007KT 12/M03 A3002 RMK A01 T01211033  RH  034%=      5-min Rain = 0
KPD2 180209Z 13007KT 12/M03 A3002 RMK A01 T01211033  RH  034%=      5-min Rain = 0
KPD2 180210Z 12007KT 12/M03 A3002 RMK A01 T01201033  RH  034%=      5-min Rain = 0
KPD2 180211Z 12007KT 12/M03 A3002 RMK A01 T01201033  RH  034%=      5-min Rain = 0
KPD2 180212Z 12007KT 12/M03 A3002 RMK A01 T01201032  RH  034%=      5-min Rain = 0
KPD2 180213Z 12007KT 12/M03 A3002 RMK A01 T01191033  RH  035%=      5-min Rain = 0
KPD2 180214Z 12007KT 12/M03 A3002 RMK A01 T01191033  RH  035%=      5-min Rain = 0
KPD2 180215Z 12005KT 12/M03 A3002 RMK A01 T01191033  RH  034%=      5-min Rain = 0
KPD2 180216Z 12006KT 12/M03 A3002 RMK A01 T01201033  RH  034%=      5-min Rain = 0
KPD2 180217Z 12006KT 12/M03 A3002 RMK A01 T01201033  RH  034%=      5-min Rain = 0
KPD2 180218Z 12005KT 12/M03 A3002 RMK A01 T01201033  RH  034%=      5-min Rain = 0
KPD2 180219Z 11005KT 12/M03 A3002 RMK A01 T01201032  RH  034%=      5-min Rain = 0
KPD2 180220Z 12006KT 12/M03 A3002 RMK A01 T01201033  RH  034%=      5-min Rain = 0
KPD2 180221Z 12006KT 12/M03 A3002 RMK A01 T01201033  RH  034%=      5-min Rain = 0
KPD2 180222Z 12006KT 12/M03 A3002 RMK A01 T01201033  RH  034%=      5-min Rain = 0
KPD2 180223Z 13006KT 12/M03 A3002 RMK A01 T01211033  RH  034%=      5-min Rain = 0
KPD2 180224Z 13005KT 12/M03 A3002 RMK A01 T01211033  RH  034%=      5-min Rain = 0
KPD2 180225Z 13005KT 12/M03 A3002 RMK A01 T01211033  RH  034%=      5-min Rain = 0
KPD2 180226Z 12005KT 12/M03 A3002 RMK A01 T01201033  RH  034%=      5-min Rain = 0
KPD2 180227Z 13005KT 12/M03 A3002 RMK A01 T01201033  RH  034%=      5-min Rain = 0
KPD2 180228Z 13004KT 12/M03 A3002 RMK A01 T01191033  RH  034%=      5-min Rain = 0
KPD2 180229Z 14005KT 12/M03 A3002 RMK A01 T01191033  RH  034%=      5-min Rain = 0
KPD2 180230Z 13005KT 12/M03 A3002 RMK A01 T01191033  RH  034%=      5-min Rain = 0
KPD2 180231Z 14005KT 12/M03 A3002 RMK A01 T01201033  RH  034%=      5-min Rain = 0
KPD2 180232Z 14005KT 12/M03 A3002 RMK A01 T01201033  RH  034%=      5-min Rain = 0
KPD2 180233Z 14004KT 12/M03 A3002 RMK A01 T01211033  RH  034%=      5-min Rain = 0
KPD2 180234Z 14005KT 12/M03 A3002 RMK A01 T01211033  RH  034%=      5-min Rain = 0
KPD2 180235Z 15004KT 12/M03 A3002 RMK A01 T01211033  RH  034%=      5-min Rain = 0
KPD2 180236Z 13005KT 12/M03 A3002 RMK A01 T01211033  RH  034%=      5-min Rain = 0
KPD2 180237Z 12005KT 12/M03 A3002 RMK A01 T01201034  RH  034%=      5-min Rain = 0
KPD2 180238Z 12006KT 12/M03 A3002 RMK A01 T01201033  RH  034%=      5-min Rain = 0
KPD2 180239Z 13006KT 12/M03 A3002 RMK A01 T01181034  RH  034%=      5-min Rain = 0
KPD2 180240Z 13005KT 12/M03 A3002 RMK A01 T01171034  RH  035%=      5-min Rain = 0
KPD2 180241Z 14006KT 12/M03 A3002 RMK A01 T01161034  RH  035%=      5-min Rain = 0
KPD2 180242Z 14005KT 12/M03 A3002 RMK A01 T01161034  RH  035%=      5-min Rain = 0
KPD2 180243Z 15005KT 12/M03 A3002 RMK A01 T01161034  RH  035%=      5-min Rain = 0
KPD2 180244Z 15005KT 12/M03 A3002 RMK A01 T01151034  RH  035%=      5-min Rain = 0
KPD2 180245Z 14005KT 12/M03 A3002 RMK A01 T01151034  RH  035%=      5-min Rain = 0
KPD2 180246Z 14005KT 12/M03 A3002 RMK A01 T01161034  RH  035%=      5-min Rain = 0
KPD2 180247Z 14006KT 12/M03 A3002 RMK A01 T01161034  RH  035%=      5-min Rain = 0
KPD2 180248Z 14005KT 12/M03 A3002 RMK A01 T01171034  RH  035%=      5-min Rain = 0
KPD2 180249Z 13004KT 12/M03 A3002 RMK A01 T01161034  RH  035%=      5-min Rain = 0
KPD2 180250Z 13005KT 12/M03 A3002 RMK A01 T01171034  RH  035%=      5-min Rain = 0
KPD2 180251Z 13004KT 12/M03 A3002 RMK A01 T01161034  RH  035%=      5-min Rain = 0
KPD2 180252Z 14004KT 12/M03 A3002 RMK A01 T01161034  RH  035%=      5-min Rain = 0
KPD2 180253Z 14005KT 12/M03 A3002 RMK A01 T01161034  RH  035%=      5-min Rain = 0
KPD2 180254Z 13006KT 12/M03 A3002 RMK A01 T01161034  RH  035%=      5-min Rain = 0
KPD2 180255Z 13006KT 12/M03 A3002 RMK A01 T01151034  RH  035%=      5-min Rain = 0
KPD2 180256Z 13006KT 11/M03 A3002 RMK A01 T01131034  RH  035%=      5-min Rain = 0
KPD2 180257Z 12006KT 11/M04 A3002 RMK A01 T01131035  RH  035%=      5-min Rain = 0
KPD2 180258Z 11006KT 11/M03 A3002 RMK A01 T01121034  RH  036%=      5-min Rain = 0
KPD2 180259Z 12005KT 11/M04 A3002 RMK A01 T01121035  RH  035%=      5-min Rain = 0
KPD2 180300Z 12005KT 11/M04 A3002 RMK A01 T01131035  RH  035%=      5-min Rain = 0
KPD2 180301Z 13005KT 11/M04 A3002 RMK A01 T01131035  RH  035%=      5-min Rain = 0
KPD2 180302Z 14005KT 11/M04 A3002 RMK A01 T01131035  RH  035%=      5-min Rain = 0
KPD2 180303Z 12004KT 11/M04 A3002 RMK A01 T01121035  RH  036%=      5-min Rain = 0
KPD2 180304Z 13005KT 11/M04 A3002 RMK A01 T01121035  RH  035%=      5-min Rain = 0
KPD2 180305Z 15006KT 11/M04 A3002 RMK A01 T01121035  RH  035%=      5-min Rain = 0
KPD2 180306Z 14005KT 11/M04 A3002 RMK A01 T01121035  RH  035%=      5-min Rain = 0
KPD2 180307Z 12006KT 11/M04 A3002 RMK A01 T01111035  RH  036%=      5-min Rain = 0
KPD2 180308Z 13005KT 11/M04 A3002 RMK A01 T01111035  RH  036%=      5-min Rain = 0
KPD2 180309Z 14006KT 11/M04 A3002 RMK A01 T01111036  RH  036%=      5-min Rain = 0
KPD2 180310Z 12005KT 11/M04 A3002 RMK A01 T01111036  RH  036%=      5-min Rain = 0
KPD2 180311Z 13006KT 11/M04 A3002 RMK A01 T01111036  RH  036%=      5-min Rain = 0
KPD2 180312Z 13006KT 11/M04 A3002 RMK A01 T01101035  RH  036%=      5-min Rain = 0
KPD2 180313Z 11005KT 11/M04 A3001 RMK A01 T01101035  RH  036%=      5-min Rain = 0
KPD2 180314Z 12006KT 11/M04 A3001 RMK A01 T01101035  RH  036%=      5-min Rain = 0
KPD2 180315Z 13006KT 11/M04 A3001 RMK A01 T01121035  RH  035%=      5-min Rain = 0
KPD2 180316Z 13006KT 11/M04 A3001 RMK A01 T01121035  RH  035%=      5-min Rain = 0
KPD2 180317Z 13007KT 11/M04 A3001 RMK A01 T01121036  RH  035%=      5-min Rain = 0
KPD2 180318Z 13007KT 11/M04 A3001 RMK A01 T01121036  RH  035%=      5-min Rain = 0
KPD2 180319Z 12008KT 11/M04 A3001 RMK A01 T01121035  RH  035%=      5-min Rain = 0
KPD2 180320Z 13008KT 11/M04 A3001 RMK A01 T01121035  RH  035%=      5-min Rain = 0
KPD2 180321Z 13007KT 11/M04 A3001 RMK A01 T01121035  RH  035%=      5-min Rain = 0
KPD2 180322Z 13008KT 11/M04 A3001 RMK A01 T01111036  RH  036%=      5-min Rain = 0
KPD2 180323Z 16005KT 11/M03 A3001 RMK A01 T01121034  RH  036%=      5-min Rain = 0
KPD2 180324Z 12005KT 12/M03 A3001 RMK A01 T01161033  RH  035%=      5-min Rain = 0
KPD2 180325Z 14007KT 12/M04 A3001 RMK A01 T01171035  RH  034%=      5-min Rain = 0
KPD2 180326Z 12008KT 12/M04 A3001 RMK A01 T01161035  RH  035%=      5-min Rain = 0
KPD2 180327Z 11008KT 12/M04 A30 RMK A01 T01151035  RH  035%=      5-min Rain = 0
KPD2 180328Z 12007KT 11/M04 A30 RMK A01 T01141035  RH  035%=      5-min Rain = 0
KPD2 180329Z 13006KT 11/M03 A30 RMK A01 T01141034  RH  035%=      5-min Rain = 0
KPD2 180330Z 12008KT 11/M03 A30 RMK A01 T01131034  RH  036%=      5-min Rain = 0
KPD2 180331Z 13008KT 11/M03 A30 RMK A01 T01121034  RH  036%=      5-min Rain = 0
KPD2 180332Z 13008KT 11/M03 A30 RMK A01 T01121034  RH  036%=      5-min Rain = 0
KPD2 180333Z 12008KT 11/M03 A30 RMK A01 T01121034  RH  036%=      5-min Rain = 0
KPD2 180334Z 12009KT 11/M03 A30 RMK A01 T01111034  RH  036%=      5-min Rain = 0
KPD2 180335Z 12008KT 11/M03 A30 RMK A01 T01101034  RH  036%=      5-min Rain = 0
KPD2 180336Z 12007KT 11/M03 A30 RMK A01 T01091034  RH  037%=      5-min Rain = 0
KPD2 180337Z 12007KT 11/M03 A30 RMK A01 T01081034  RH  037%=      5-min Rain = 0
KPD2 180338Z 12007KT 11/M03 A30 RMK A01 T01071034  RH  037%=      5-min Rain = 0
KPD2 180339Z 12007KT 11/M03 A30 RMK A01 T01061034  RH  037%=      5-min Rain = 0
KPD2 180340Z 12005KT 11/M03 A30 RMK A01 T01061034  RH  037%=      5-min Rain = 0
KPD2 180341Z 12006KT 11/M03 A30 RMK A01 T01061034  RH  037%=      5-min Rain = 0
KPD2 180342Z 12005KT 10/M03 A30 RMK A01 T01041034  RH  038%=      5-min Rain = 0
KPD2 180343Z 12005KT 10/M03 A30 RMK A01 T01041034  RH  038%=      5-min Rain = 0
KPD2 180344Z 11005KT 10/M03 A30 RMK A01 T01041033  RH  038%=      5-min Rain = 0
KPD2 180345Z 12005KT 10/M03 A30 RMK A01 T01031034  RH  038%=      5-min Rain = 0
KPD2 180346Z 12005KT 10/M03 A30 RMK A01 T01031033  RH  038%=      5-min Rain = 0
KPD2 180347Z 12006KT 10/M03 A30 RMK A01 T01021034  RH  038%=      5-min Rain = 0
KPD2 180348Z 12006KT 10/M03 A30 RMK A01 T01011033  RH  039%=      5-min Rain = 0
KPD2 180349Z 11006KT 10/M03 A30 RMK A01 T01011033  RH  039%=      5-min Rain = 0
KPD2 180350Z 11007KT 10/M03 A30 RMK A01 T01011033  RH  039%=      5-min Rain = 0
KPD2 180351Z 12006KT 10/M03 A30 RMK A01 T01021033  RH  039%=      5-min Rain = 0
KPD2 180352Z 12007KT 10/M03 A30 RMK A01 T01031032  RH  038%=      5-min Rain = 0
KPD2 180353Z 14005KT 10/M03 A30 RMK A01 T01031033  RH  038%=      5-min Rain = 0
KPD2 180354Z 13007KT 10/M03 A30 RMK A01 T01031032  RH  039%=      5-min Rain = 0
KPD2 180355Z 12008KT 10/M03 A30 RMK A01 T01031032  RH  039%=      5-min Rain = 0
KPD2 180356Z 12008KT 10/M03 A30 RMK A01 T01021032  RH  039%=      5-min Rain = 0
KPD2 180357Z 12007KT 10/M03 A30 RMK A01 T01011032  RH  039%=      5-min Rain = 0
KPD2 180358Z 12007KT 10/M03 A30 RMK A01 T01011032  RH  039%=      5-min Rain = 0
KPD2 180359Z 12007KT 10/M03 A30 RMK A01 T01001032  RH  039%=      5-min Rain = 0
KPD2 180400Z 12006KT 10/M03 A30 RMK A01 T01001032  RH  039%=      5-min Rain = 0
KPD2 180401Z 11007KT 10/M03 A30 RMK A01 T01001032  RH  039%=      5-min Rain = 0
KPD2 180402Z 11006KT 10/M03 A30 RMK A01 T00991032  RH  039%=      5-min Rain = 0
KPD2 180403Z 11007KT 10/M03 A30 RMK A01 T00991032  RH  040%=      5-min Rain = 0
KPD2 180404Z 11007KT 10/M03 A30 RMK A01 T01001031  RH  040%=      5-min Rain = 0
KPD2 180405Z 11006KT 10/M03 A30 RMK A01 T01011031  RH  039%=      5-min Rain = 0
KPD2 180406Z 11007KT 10/M03 A30 RMK A01 T01021032  RH  039%=      5-min Rain = 0
KPD2 180407Z 11006KT 10/M03 A30 RMK A01 T01021032  RH  039%=      5-min Rain = 0
KPD2 180408Z 11007KT 10/M03 A30 RMK A01 T01021032  RH  039%=      5-min Rain = 0
KPD2 180409Z 11005KT 10/M03 A30 RMK A01 T01021032  RH  039%=      5-min Rain = 0
KPD2 180410Z 12005KT 10/M03 A30 RMK A01 T01011032  RH  039%=      5-min Rain = 0
KPD2 180411Z 11007KT 10/M03 A30 RMK A01 T01001032  RH  039%=      5-min Rain = 0
KPD2 180412Z 11006KT 10/M03 A30 RMK A01 T01001032  RH  039%=      5-min Rain = 0
KPD2 180413Z 11006KT 10/M03 A30 RMK A01 T01001032  RH  039%=      5-min Rain = 0
KPD2 180414Z 12005KT 10/M03 A30 RMK A01 T01001032  RH  039%=      5-min Rain = 0
KPD2 180415Z 12005KT 10/M03 A30 RMK A01 T01001032  RH  039%=      5-min Rain = 0
KPD2 180416Z 13005KT 10/M03 A30 RMK A01 T00981032  RH  040%=      5-min Rain = 0
KPD2 180417Z 12005KT 10/M03 A30 RMK A01 T00971032  RH  040%=      5-min Rain = 0
KPD2 180418Z 12006KT 10/M03 A30 RMK A01 T00951032  RH  040%=      5-min Rain = 0
KPD2 180419Z 12008KT 09/M03 A30 RMK A01 T00941032  RH  041%=      5-min Rain = 0
KPD2 180420Z 11008KT 09/M03 A30 RMK A01 T00941032  RH  041%=      5-min Rain = 0
KPD2 180421Z 12007KT 09/M03 A30 RMK A01 T00931032  RH  041%=      5-min Rain = 0
KPD2 180422Z 12006KT 09/M03 A30 RMK A01 T00931032  RH  041%=      5-min Rain = 0
KPD2 180423Z 12007KT 09/M03 A30 RMK A01 T00931032  RH  041%=      5-min Rain = 0
KPD2 180424Z 11007KT 09/M03 A30 RMK A01 T00931032  RH  041%=      5-min Rain = 0
KPD2 180425Z 11007KT 09/M03 A30 RMK A01 T00931032  RH  041%=      5-min Rain = 0
KPD2 180426Z 12008KT 09/M03 A30 RMK A01 T00921032  RH  042%=      5-min Rain = 0
KPD2 180427Z 11007KT 09/M03 A2999 RMK A01 T00921032  RH  041%=      5-min Rain = 0
KPD2 180428Z 12007KT 09/M03 A2999 RMK A01 T00931031  RH  041%=      5-min Rain = 0
KPD2 180429Z 12007KT 09/M03 A30 RMK A01 T00941031  RH  041%=      5-min Rain = 0
KPD2 180430Z 11008KT 10/M03 A2999 RMK A01 T00951032  RH  041%=      5-min Rain = 0
KPD2 180431Z 12010KT 10/M03 A2999 RMK A01 T00951031  RH  041%=      5-min Rain = 0
KPD2 180432Z 13008KT 10/M03 A2999 RMK A01 T00961030  RH  041%=      5-min Rain = 0
KPD2 180433Z 12007KT 10/M03 A2999 RMK A01 T00971030  RH  041%=      5-min Rain = 0
KPD2 180434Z 12007G13KT 10/M03 A2999 RMK A01 T00981030  RH  040%=      5-min Rain = 0
KPD2 180435Z 14008G14KT 10/M03 A2999 RMK A01 T00991029  RH  041%=      5-min Rain = 0
KPD2 180436Z 15008G13KT 10/M03 A2999 RMK A01 T01011028  RH  040%=      5-min Rain = 0
KPD2 180437Z 12007KT 10/M03 A2999 RMK A01 T01021028  RH  040%=      5-min Rain = 0
KPD2 180438Z 13008KT 10/M03 A2999 RMK A01 T01031029  RH  040%=      5-min Rain = 0
KPD2 180439Z 13009KT 10/M03 A2999 RMK A01 T01021028  RH  040%=      5-min Rain = 0
KPD2 180440Z 15007G13KT 10/M03 A2999 RMK A01 T01021028  RH  040%=      5-min Rain = 0
KPD2 180441Z 12010KT 10/M03 A2999 RMK A01 T01031029  RH  040%=      5-min Rain = 0
KPD2 180442Z 12009G14KT 10/M03 A2999 RMK A01 T01011030  RH  040%=      5-min Rain = 0
KPD2 180443Z 13010KT 10/M03 A2999 RMK A01 T01001029  RH  040%=      5-min Rain = 0
KPD2 180444Z 12008KT 10/M03 A2999 RMK A01 T00991030  RH  040%=      5-min Rain = 0
KPD2 180445Z 11009KT 10/M03 A2999 RMK A01 T00961031  RH  041%=      5-min Rain = 0
KPD2 180446Z 11006KT 09/M03 A2999 RMK A01 T00941031  RH  041%=      5-min Rain = 0
KPD2 180447Z 11007KT 09/M03 A2999 RMK A01 T00931030  RH  042%=      5-min Rain = 0
KPD2 180448Z 12009KT 09/M03 A2999 RMK A01 T00911031  RH  042%=      5-min Rain = 0
KPD2 180449Z 12007KT 09/M03 A2999 RMK A01 T00891030  RH  043%=      5-min Rain = 0
KPD2 180450Z 13007KT 09/M03 A2999 RMK A01 T00881031  RH  043%=      5-min Rain = 0
KPD2 180451Z 12008KT 09/M03 A2999 RMK A01 T00881030  RH  043%=      5-min Rain = 0
KPD2 180452Z 12007KT 09/M03 A2999 RMK A01 T00881029  RH  044%=      5-min Rain = 0
KPD2 180453Z 11006KT 09/M03 A2999 RMK A01 T00881028  RH  044%=      5-min Rain = 0
KPD2 180454Z 13005KT 09/M03 A2999 RMK A01 T00881028  RH  044%=      5-min Rain = 0
KPD2 180455Z 13007KT 09/M03 A2999 RMK A01 T00871028  RH  044%=      5-min Rain = 0
KPD2 180456Z 12005KT 09/M03 A2999 RMK A01 T00871028  RH  044%=      5-min Rain = 0
KPD2 180457Z 12006KT 09/M03 A2999 RMK A01 T00861028  RH  044%=      5-min Rain = 0
KPD2 180458Z 13007KT 09/M03 A2999 RMK A01 T00861028  RH  045%=      5-min Rain = 0
KPD2 180459Z 12007KT 09/M03 A2999 RMK A01 T00861027  RH  045%=      5-min Rain = 0
KPD2 180500Z 12006KT 09/M03 A2999 RMK A01 T00861028  RH  045%=      5-min Rain = 0
KPD2 180501Z 12007KT 09/M03 A2999 RMK A01 T00861027  RH  045%=      5-min Rain = 0
KPD2 180502Z 11007KT 09/M03 A2999 RMK A01 T00861026  RH  045%=      5-min Rain = 0
KPD2 180503Z 12008KT 09/M03 A2999 RMK A01 T00851026  RH  045%=      5-min Rain = 0
KPD2 180504Z 12007KT 09/M03 A2999 RMK A01 T00851025  RH  046%=      5-min Rain = 0
KPD2 180505Z 12005KT 09/M03 A2999 RMK A01 T00851025  RH  046%=      5-min Rain = 0
KPD2 180506Z 12007KT 09/M03 A2999 RMK A01 T00851025  RH  046%=      5-min Rain = 0
KPD2 180507Z 11006KT 09/M02 A2999 RMK A01 T00861024  RH  046%=      5-min Rain = 0
KPD2 180508Z 12005KT 09/M02 A2999 RMK A01 T00861024  RH  046%=      5-min Rain = 0
KPD2 180509Z 11006KT 09/M02 A2999 RMK A01 T00861024  RH  046%=      5-min Rain = 0
KPD2 180510Z 11005KT 09/M02 A2999 RMK A01 T00861024  RH  046%=      5-min Rain = 0
KPD2 180511Z 12005KT 09/M02 A2999 RMK A01 T00861023  RH  046%=      5-min Rain = 0
KPD2 180512Z 12007KT 09/M02 A2999 RMK A01 T00861023  RH  046%=      5-min Rain = 0
KPD2 180513Z 12005KT 09/M02 A2999 RMK A01 T00861023  RH  046%=      5-min Rain = 0
KPD2 180514Z 13005KT 09/M02 A2999 RMK A01 T00861023  RH  046%=      5-min Rain = 0
KPD2 180515Z 14008KT 09/M02 A2998 RMK A01 T00861023  RH  046%=      5-min Rain = 0
KPD2 180516Z 14008KT 09/M02 A2998 RMK A01 T00871022  RH  046%=      5-min Rain = 0
KPD2 180517Z 13007KT 09/M02 A2998 RMK A01 T00881022  RH  046%=      5-min Rain = 0
KPD2 180518Z 13008KT 09/M02 A2998 RMK A01 T00881021  RH  046%=      5-min Rain = 0
KPD2 180519Z 13009KT 09/M02 A2998 RMK A01 T00881021  RH  046%=      5-min Rain = 0
KPD2 180520Z 13007KT 09/M02 A2998 RMK A01 T00901020  RH  046%=      5-min Rain = 0
KPD2 180521Z 13007KT 09/M02 A2998 RMK A01 T00931020  RH  045%=      5-min Rain = 0
KPD2 180522Z 12008KT 09/M02 A2998 RMK A01 T00921020  RH  045%=      5-min Rain = 0
KPD2 180523Z 12007KT 09/M02 A2998 RMK A01 T00901020  RH  046%=      5-min Rain = 0
KPD2 180524Z 12008KT 09/M02 A2998 RMK A01 T00891019  RH  047%=      5-min Rain = 0
KPD2 180525Z 12008KT 09/M02 A2998 RMK A01 T00881019  RH  047%=      5-min Rain = 0
KPD2 180526Z 12008KT 09/M02 A2998 RMK A01 T00881019  RH  047%=      5-min Rain = 0
KPD2 180527Z 12006KT 09/M02 A2998 RMK A01 T00881019  RH  047%=      5-min Rain = 0
KPD2 180528Z 13007KT 09/M02 A2998 RMK A01 T00881019  RH  047%=      5-min Rain = 0
KPD2 180529Z 12006KT 09/M02 A2998 RMK A01 T00881018  RH  047%=      5-min Rain = 0
KPD2 180530Z 12009KT 09/M02 A2998 RMK A01 T00871018  RH  047%=      5-min Rain = 0
KPD2 180531Z 11008KT 09/M02 A2998 RMK A01 T00871018  RH  048%=      5-min Rain = 0
KPD2 180532Z 11009KT 09/M02 A2998 RMK A01 T00881018  RH  047%=      5-min Rain = 0
KPD2 180533Z 12008KT 09/M02 A2998 RMK A01 T00891017  RH  047%=      5-min Rain = 0
KPD2 180534Z 12008KT 09/M02 A2998 RMK A01 T00901017  RH  047%=      5-min Rain = 0
KPD2 180535Z 11007KT 09/M02 A2998 RMK A01 T00901017  RH  047%=      5-min Rain = 0
KPD2 180536Z 12006KT 09/M02 A2998 RMK A01 T00901017  RH  047%=      5-min Rain = 0
KPD2 180537Z 12007KT 09/M02 A2998 RMK A01 T00901017  RH  047%=      5-min Rain = 0
KPD2 180538Z 12008KT 09/M02 A2998 RMK A01 T00901017  RH  047%=      5-min Rain = 0
KPD2 180539Z 12007KT 09/M02 A2998 RMK A01 T00891017  RH  047%=      5-min Rain = 0
KPD2 180540Z 10006KT 09/M02 A2998 RMK A01 T00881017  RH  047%=      5-min Rain = 0
KPD2 180541Z 11007KT 09/M02 A2998 RMK A01 T00891017  RH  047%=      5-min Rain = 0
KPD2 180542Z 11006KT 09/M02 A2998 RMK A01 T00891017  RH  047%=      5-min Rain = 0
KPD2 180543Z 11005KT 09/M02 A2998 RMK A01 T00901017  RH  047%=      5-min Rain = 0
KPD2 180544Z 11006KT 09/M02 A2998 RMK A01 T00911017  RH  047%=      5-min Rain = 0
KPD2 180545Z 10007KT 09/M02 A2998 RMK A01 T00901017  RH  047%=      5-min Rain = 0
KPD2 180546Z 11006KT 09/M02 A2998 RMK A01 T00901017  RH  047%=      5-min Rain = 0
KPD2 180547Z 11006KT 09/M02 A2998 RMK A01 T00921016  RH  047%=      5-min Rain = 0
KPD2 180548Z 12006KT 09/M02 A2998 RMK A01 T00931016  RH  046%=      5-min Rain = 0
KPD2 180549Z 11006KT 09/M02 A2998 RMK A01 T00931016  RH  046%=      5-min Rain = 0
KPD2 180550Z 13009KT 09/M02 A2998 RMK A01 T00931017  RH  046%=      5-min Rain = 0
KPD2 180551Z 13008KT 09/M02 A2998 RMK A01 T00941017  RH  046%=      5-min Rain = 0
KPD2 180552Z 11006KT 09/M02 A2998 RMK A01 T00941018  RH  045%=      5-min Rain = 0
KPD2 180553Z 12007KT 09/M02 A2998 RMK A01 T00941018  RH  046%=      5-min Rain = 0
KPD2 180554Z 12006KT 10/M02 A2998 RMK A01 T00951017  RH  045%=      5-min Rain = 0
KPD2 180555Z 11006G11KT 10/M02 A2998 RMK A01 T00951017  RH  045%=      5-min Rain = 0
KPD2 180556Z 11009KT 10/M02 A2998 RMK A01 T00951017  RH  045%=      5-min Rain = 0
KPD2 180557Z 12008KT 10/M02 A2998 RMK A01 T00951017  RH  046%=      5-min Rain = 0
KPD2 180558Z 12008KT 10/M02 A2998 RMK A01 T00951018  RH  045%=      5-min Rain = 0
KPD2 180559Z 12006KT 10/M02 A2998 RMK A01 T00961018  RH  045%=      5-min Rain = 0

Page generated in 0.1292 seconds.